2016 Cux-Wetter.de -Die Nutzung der Wetterdaten nur mit ausdrcklicher Genehmigung
Wetterdaten: Donnerstag, 16.02.2017
Datum Zeit Temp. A. Feuchte A. Luftdruck Regen Wind Richtung Richtung Sonnenschein Solar Taupunkt Windchill Windben
16.02.2017 00:00 2,6 C 87 % 1028,2 hPa 0,0 l/m 3,9 km/h (1 Bft) SO 132 0 min 0 W/m 0,7 C 2,6 C 6,4 km/h (2 Bft)
16.02.2017 00:03 2,6 C 87 % 1028,2 hPa 0,0 l/m 3,4 km/h (1 Bft) SO 132 0 min 0 W/m 0,7 C 2,6 C 4,8 km/h (1 Bft)
16.02.2017 00:06 2,7 C 87 % 1028,2 hPa 0,0 l/m 2,7 km/h (1 Bft) SO 132 0 min 0 W/m 0,8 C 2,7 C 3,2 km/h (1 Bft)
16.02.2017 00:09 2,7 C 87 % 1028,2 hPa 0,0 l/m 2,5 km/h (1 Bft) SO 132 0 min 0 W/m 0,8 C 2,7 C 4,8 km/h (1 Bft)
16.02.2017 00:12 2,7 C 87 % 1028,2 hPa 0,0 l/m 2,2 km/h (1 Bft) SO 132 0 min 0 W/m 0,8 C 2,7 C 4,8 km/h (1 Bft)
16.02.2017 00:15 2,7 C 87 % 1028,1 hPa 0,0 l/m 2,0 km/h (1 Bft) SO 132 0 min 0 W/m 0,8 C 2,7 C 3,2 km/h (1 Bft)
16.02.2017 00:18 2,7 C 87 % 1028,1 hPa 0,0 l/m 1,9 km/h (1 Bft) SO 132 0 min 0 W/m 0,8 C 2,7 C 4,8 km/h (1 Bft)
16.02.2017 00:21 2,7 C 87 % 1028,1 hPa 0,0 l/m 1,6 km/h (1 Bft) SO 132 0 min 0 W/m 0,8 C 2,7 C 3,2 km/h (1 Bft)
16.02.2017 00:24 2,7 C 87 % 1028,1 hPa 0,0 l/m 2,0 km/h (1 Bft) SO 132 0 min 0 W/m 0,8 C 2,7 C 4,8 km/h (1 Bft)
16.02.2017 00:27 2,7 C 87 % 1028,1 hPa 0,0 l/m 2,2 km/h (1 Bft) SO 132 0 min 0 W/m 0,8 C 2,7 C 4,8 km/h (1 Bft)
16.02.2017 00:30 2,7 C 87 % 1028,1 hPa 0,0 l/m 3,2 km/h (1 Bft) SO 136 0 min 0 W/m 0,8 C 2,7 C 4,8 km/h (1 Bft)
16.02.2017 00:33 2,8 C 87 % 1028,1 hPa 0,0 l/m 3,2 km/h (1 Bft) SO 136 0 min 0 W/m 0,9 C 2,8 C 6,4 km/h (2 Bft)
16.02.2017 00:36 2,8 C 86 % 1028,1 hPa 0,0 l/m 3,8 km/h (1 Bft) SO 146 0 min 0 W/m 0,7 C 2,8 C 8,0 km/h (2 Bft)
16.02.2017 00:39 2,9 C 87 % 1028,0 hPa 0,0 l/m 3,6 km/h (1 Bft) S-SO 150 0 min 0 W/m 1,0 C 2,9 C 6,4 km/h (2 Bft)
16.02.2017 00:42 2,9 C 87 % 1028,0 hPa 0,0 l/m 3,4 km/h (1 Bft) S-SO 151 0 min 0 W/m 1,0 C 2,9 C 6,4 km/h (2 Bft)
16.02.2017 00:45 3,0 C 86 % 1028,0 hPa 0,0 l/m 3,8 km/h (1 Bft) S-SO 155 0 min 0 W/m 0,9 C 3,0 C 6,4 km/h (2 Bft)
16.02.2017 00:48 3,0 C 86 % 1028,0 hPa 0,0 l/m 3,6 km/h (1 Bft) S-SO 155 0 min 0 W/m 0,9 C 3,0 C 6,4 km/h (2 Bft)
16.02.2017 00:51 3,1 C 86 % 1028,0 hPa 0,0 l/m 6,0 km/h (2 Bft) S-SO 162 0 min 0 W/m 1,0 C 3,1 C 9,7 km/h (2 Bft)
16.02.2017 00:54 3,1 C 86 % 1028,0 hPa 0,0 l/m 4,6 km/h (1 Bft) S-SO 163 0 min 0 W/m 1,0 C 3,1 C 8,0 km/h (2 Bft)
16.02.2017 00:57 3,1 C 86 % 1028,0 hPa 0,0 l/m 4,9 km/h (1 Bft) S-SO 163 0 min 0 W/m 1,0 C 3,1 C 8,0 km/h (2 Bft)
16.02.2017 01:00 3,2 C 86 % 1027,9 hPa 0,0 l/m 3,9 km/h (1 Bft) S-SO 163 0 min 0 W/m 1,1 C 3,2 C 8,0 km/h (2 Bft)
16.02.2017 01:03 3,2 C 86 % 1027,9 hPa 0,0 l/m 2,9 km/h (1 Bft) S-SO 163 0 min 0 W/m 1,1 C 3,2 C 8,0 km/h (2 Bft)
16.02.2017 01:06 3,2 C 86 % 1027,9 hPa 0,0 l/m 2,3 km/h (1 Bft) S-SO 163 0 min 0 W/m 1,1 C 3,2 C 6,4 km/h (2 Bft)
16.02.2017 01:09 3,2 C 86 % 1027,9 hPa 0,0 l/m 2,3 km/h (1 Bft) S-SO 163 0 min 0 W/m 1,1 C 3,2 C 6,4 km/h (2 Bft)
16.02.2017 01:12 3,3 C 86 % 1027,9 hPa 0,0 l/m 3,9 km/h (1 Bft) S-SO 163 0 min 0 W/m 1,2 C 3,3 C 8,0 km/h (2 Bft)
16.02.2017 01:15 3,3 C 86 % 1027,8 hPa 0,0 l/m 2,7 km/h (1 Bft) S-SO 161 0 min 0 W/m 1,2 C 3,3 C 6,4 km/h (2 Bft)
16.02.2017 01:18 3,3 C 86 % 1027,8 hPa 0,0 l/m 3,4 km/h (1 Bft) S-SO 162 0 min 0 W/m 1,2 C 3,3 C 6,4 km/h (2 Bft)
16.02.2017 01:21 3,3 C 86 % 1027,7 hPa 0,0 l/m 3,8 km/h (1 Bft) S-SO 162 0 min 0 W/m 1,2 C 3,3 C 6,4 km/h (2 Bft)
16.02.2017 01:24 3,4 C 87 % 1027,7 hPa 0,0 l/m 3,8 km/h (1 Bft) S 190 0 min 0 W/m 1,4 C 3,4 C 6,4 km/h (2 Bft)
16.02.2017 01:27 3,7 C 86 % 1027,6 hPa 0,0 l/m 4,2 km/h (1 Bft) S 180 0 min 0 W/m 1,6 C 3,7 C 11,3 km/h (2 Bft)
16.02.2017 01:30 4,0 C 86 % 1027,6 hPa 0,0 l/m 5,2 km/h (1 Bft) S 184 0 min 0 W/m 1,9 C 4,0 C 8,0 km/h (2 Bft)
16.02.2017 01:33 4,7 C 85 % 1027,6 hPa 0,0 l/m 5,3 km/h (1 Bft) S-SW 199 0 min 0 W/m 2,4 C 4,7 C 11,3 km/h (2 Bft)
16.02.2017 01:36 5,3 C 82 % 1027,6 hPa 0,0 l/m 6,6 km/h (2 Bft) S-SW 207 0 min 0 W/m 2,5 C 5,1 C 11,3 km/h (2 Bft)
16.02.2017 01:39 5,8 C 80 % 1027,6 hPa 0,0 l/m 7,6 km/h (2 Bft) SW 217 0 min 0 W/m 2,6 C 4,8 C 14,5 km/h (3 Bft)
16.02.2017 01:42 6,2 C 78 % 1027,6 hPa 0,0 l/m 8,4 km/h (2 Bft) S 185 0 min 0 W/m 2,7 C 4,6 C 16,1 km/h (3 Bft)
16.02.2017 01:45 6,6 C 76 % 1027,5 hPa 0,0 l/m 9,6 km/h (2 Bft) SW 234 0 min 0 W/m 2,7 C 4,1 C 16,1 km/h (3 Bft)
16.02.2017 01:48 6,7 C 75 % 1027,5 hPa 0,0 l/m 9,1 km/h (2 Bft) SW 228 0 min 0 W/m 2,6 C 4,6 C 16,1 km/h (3 Bft)
16.02.2017 01:51 6,8 C 74 % 1027,5 hPa 0,0 l/m 6,7 km/h (2 Bft) S-SW 210 0 min 0 W/m 2,5 C 6,6 C 11,3 km/h (2 Bft)
16.02.2017 01:54 6,8 C 75 % 1027,5 hPa 0,0 l/m 9,0 km/h (2 Bft) SW 214 0 min 0 W/m 2,7 C 4,7 C 16,1 km/h (3 Bft)
16.02.2017 01:57 6,8 C 74 % 1027,5 hPa 0,0 l/m 8,2 km/h (2 Bft) S-SW 203 0 min 0 W/m 2,5 C 5,3 C 12,9 km/h (3 Bft)
16.02.2017 02:00 6,8 C 74 % 1027,5 hPa 0,0 l/m 7,7 km/h (2 Bft) S-SW 211 0 min 0 W/m 2,5 C 5,7 C 12,9 km/h (3 Bft)
16.02.2017 02:03 6,8 C 74 % 1027,5 hPa 0,0 l/m 6,8 km/h (2 Bft) S-SW 208 0 min 0 W/m 2,5 C 6,5 C 9,7 km/h (2 Bft)
16.02.2017 02:06 6,7 C 74 % 1027,5 hPa 0,0 l/m 8,6 km/h (2 Bft) SW 217 0 min 0 W/m 2,4 C 4,9 C 14,5 km/h (3 Bft)
16.02.2017 02:09 6,7 C 74 % 1027,5 hPa 0,0 l/m 8,4 km/h (2 Bft) SW 217 0 min 0 W/m 2,4 C 5,1 C 12,9 km/h (3 Bft)
16.02.2017 02:12 6,7 C 75 % 1027,4 hPa 0,0 l/m 8,7 km/h (2 Bft) SW 220 0 min 0 W/m 2,6 C 4,9 C 14,5 km/h (3 Bft)
16.02.2017 02:15 6,7 C 75 % 1027,4 hPa 0,0 l/m 7,8 km/h (2 Bft) S-SW 200 0 min 0 W/m 2,6 C 5,5 C 14,5 km/h (3 Bft)
16.02.2017 02:18 6,7 C 75 % 1027,4 hPa 0,0 l/m 9,3 km/h (2 Bft) S-SW 192 0 min 0 W/m 2,6 C 4,4 C 17,7 km/h (3 Bft)
16.02.2017 02:21 6,7 C 75 % 1027,4 hPa 0,0 l/m 9,3 km/h (2 Bft) SW 222 0 min 0 W/m 2,6 C 4,4 C 14,5 km/h (3 Bft)
16.02.2017 02:24 6,7 C 75 % 1027,4 hPa 0,0 l/m 7,4 km/h (2 Bft) S-SW 210 0 min 0 W/m 2,6 C 5,9 C 11,3 km/h (2 Bft)
16.02.2017 02:27 6,6 C 75 % 1027,4 hPa 0,0 l/m 6,9 km/h (2 Bft) S-SW 213 0 min 0 W/m 2,5 C 6,2 C 9,7 km/h (2 Bft)
16.02.2017 02:30 6,4 C 75 % 1027,4 hPa 0,0 l/m 7,0 km/h (2 Bft) S-SW 213 0 min 0 W/m 2,3 C 5,9 C 11,3 km/h (2 Bft)
16.02.2017 02:33 6,4 C 76 % 1027,4 hPa 0,0 l/m 7,9 km/h (2 Bft) SW 215 0 min 0 W/m 2,5 C 5,2 C 9,7 km/h (2 Bft)
16.02.2017 02:36 6,5 C 76 % 1027,4 hPa 0,0 l/m 7,6 km/h (2 Bft) SW 217 0 min 0 W/m 2,6 C 5,5 C 11,3 km/h (2 Bft)
16.02.2017 02:39 6,5 C 76 % 1027,4 hPa 0,0 l/m 8,7 km/h (2 Bft) S-SW 206 0 min 0 W/m 2,6 C 4,6 C 14,5 km/h (3 Bft)
16.02.2017 02:42 6,6 C 76 % 1027,4 hPa 0,0 l/m 10,0 km/h (2 Bft) SW 218 0 min 0 W/m 2,7 C 3,8 C 17,7 km/h (3 Bft)
16.02.2017 02:45 6,6 C 76 % 1027,4 hPa 0,0 l/m 9,2 km/h (2 Bft) SW 221 0 min 0 W/m 2,7 C 4,4 C 16,1 km/h (3 Bft)
16.02.2017 02:48 6,7 C 76 % 1027,3 hPa 0,0 l/m 9,0 km/h (2 Bft) SW 232 0 min 0 W/m 2,8 C 4,6 C 14,5 km/h (3 Bft)
16.02.2017 02:51 6,7 C 76 % 1027,3 hPa 0,0 l/m 11,0 km/h (2 Bft) SW 232 0 min 0 W/m 2,8 C 3,3 C 16,1 km/h (3 Bft)
16.02.2017 02:54 6,7 C 76 % 1027,5 hPa 0,0 l/m 10,5 km/h (2 Bft) S-SW 211 0 min 0 W/m 2,8 C 3,6 C 16,1 km/h (3 Bft)
16.02.2017 02:57 6,8 C 77 % 1027,4 hPa 0,0 l/m 11,5 km/h (2 Bft) SW 220 0 min 0 W/m 3,1 C 3,1 C 17,7 km/h (3 Bft)
16.02.2017 03:00 6,8 C 77 % 1027,4 hPa 0,0 l/m 11,2 km/h (2 Bft) SW 218 0 min 0 W/m 3,1 C 3,3 C 16,1 km/h (3 Bft)
16.02.2017 03:03 6,9 C 77 % 1027,3 hPa 0,0 l/m 10,3 km/h (2 Bft) S-SW 207 0 min 0 W/m 3,2 C 4,0 C 14,5 km/h (3 Bft)
16.02.2017 03:06 7,0 C 77 % 1027,2 hPa 0,0 l/m 11,2 km/h (2 Bft) SW 221 0 min 0 W/m 3,2 C 3,5 C 16,1 km/h (3 Bft)
16.02.2017 03:09 7,2 C 77 % 1027,3 hPa 0,0 l/m 12,1 km/h (2 Bft) SW 226 0 min 0 W/m 3,4 C 3,2 C 17,7 km/h (3 Bft)
16.02.2017 03:12 7,2 C 77 % 1027,3 hPa 0,0 l/m 11,1 km/h (2 Bft) SW 229 0 min 0 W/m 3,4 C 3,8 C 19,3 km/h (3 Bft)
16.02.2017 03:15 7,3 C 77 % 1027,3 hPa 0,0 l/m 11,7 km/h (2 Bft) S-SW 195 0 min 0 W/m 3,5 C 3,6 C 19,3 km/h (3 Bft)
16.02.2017 03:18 7,3 C 77 % 1027,3 hPa 0,0 l/m 9,9 km/h (2 Bft) SW 219 0 min 0 W/m 3,5 C 4,7 C 12,9 km/h (3 Bft)
16.02.2017 03:21 7,3 C 77 % 1027,3 hPa 0,0 l/m 10,3 km/h (2 Bft) SW 236 0 min 0 W/m 3,5 C 4,4 C 14,5 km/h (3 Bft)
16.02.2017 03:24 7,3 C 77 % 1027,2 hPa 0,0 l/m 12,9 km/h (3 Bft) S-SW 202 0 min 0 W/m 3,5 C 2,9 C 20,9 km/h (4 Bft)
16.02.2017 03:27 7,3 C 78 % 1027,2 hPa 0,0 l/m 12,2 km/h (2 Bft) SW 225 0 min 0 W/m 3,7 C 3,3 C 20,9 km/h (4 Bft)
16.02.2017 03:30 7,3 C 78 % 1027,1 hPa 0,0 l/m 11,4 km/h (2 Bft) SW 217 0 min 0 W/m 3,7 C 3,8 C 17,7 km/h (3 Bft)
16.02.2017 03:33 7,3 C 79 % 1027,1 hPa 0,0 l/m 12,8 km/h (3 Bft) SW 227 0 min 0 W/m 3,9 C 3,0 C 19,3 km/h (3 Bft)
16.02.2017 03:36 7,3 C 79 % 1027,1 hPa 0,0 l/m 11,0 km/h (2 Bft) SW 224 0 min 0 W/m 3,9 C 4,0 C 17,7 km/h (3 Bft)
16.02.2017 03:39 7,3 C 79 % 1027,0 hPa 0,0 l/m 11,4 km/h (2 Bft) SW 234 0 min 0 W/m 3,9 C 3,8 C 16,1 km/h (3 Bft)
16.02.2017 03:42 7,3 C 80 % 1027,0 hPa 0,0 l/m 11,3 km/h (2 Bft) SW 232 0 min 0 W/m 4,1 C 3,8 C 19,3 km/h (3 Bft)
16.02.2017 03:45 7,3 C 80 % 1027,0 hPa 0,0 l/m 10,8 km/h (2 Bft) SW 219 0 min 0 W/m 4,1 C 4,1 C 16,1 km/h (3 Bft)
16.02.2017 03:48 7,3 C 81 % 1027,0 hPa 0,0 l/m 11,3 km/h (2 Bft) S-SW 202 0 min 0 W/m 4,3 C 3,8 C 20,9 km/h (4 Bft)
16.02.2017 03:51 7,3 C 81 % 1027,1 hPa 0,0 l/m 12,1 km/h (2 Bft) SW 226 0 min 0 W/m 4,3 C 3,3 C 17,7 km/h (3 Bft)
16.02.2017 03:54 7,2 C 81 % 1027,0 hPa 0,0 l/m 9,0 km/h (2 Bft) S-SW 213 0 min 0 W/m 4,2 C 5,2 C 14,5 km/h (3 Bft)
16.02.2017 03:57 7,0 C 82 % 1027,0 hPa 0,0 l/m 9,1 km/h (2 Bft) S-SW 202 0 min 0 W/m 4,1 C 4,9 C 14,5 km/h (3 Bft)
16.02.2017 04:00 6,9 C 82 % 1026,9 hPa 0,0 l/m 9,2 km/h (2 Bft) SW 218 0 min 0 W/m 4,0 C 4,7 C 14,5 km/h (3 Bft)
16.02.2017 04:03 6,7 C 82 % 1026,8 hPa 0,0 l/m 8,0 km/h (2 Bft) S-SW 209 0 min 0 W/m 3,8 C 5,4 C 12,9 km/h (3 Bft)
16.02.2017 04:06 6,6 C 83 % 1026,9 hPa 0,0 l/m 8,4 km/h (2 Bft) SW 215 0 min 0 W/m 3,9 C 5,0 C 12,9 km/h (3 Bft)
16.02.2017 04:09 6,5 C 83 % 1026,9 hPa 0,0 l/m 8,4 km/h (2 Bft) SW 214 0 min 0 W/m 3,8 C 4,9 C 12,9 km/h (3 Bft)
16.02.2017 04:12 6,4 C 83 % 1026,9 hPa 0,0 l/m 8,3 km/h (2 Bft) S-SW 208 0 min 0 W/m 3,7 C 4,8 C 12,9 km/h (3 Bft)
16.02.2017 04:15 6,2 C 83 % 1026,9 hPa 0,0 l/m 8,2 km/h (2 Bft) S-SW 198 0 min 0 W/m 3,5 C 4,7 C 11,3 km/h (2 Bft)
16.02.2017 04:18 6,2 C 83 % 1026,9 hPa 0,0 l/m 8,8 km/h (2 Bft) SW 221 0 min 0 W/m 3,5 C 4,2 C 12,9 km/h (3 Bft)
16.02.2017 04:21 6,0 C 84 % 1026,8 hPa 0,0 l/m 8,2 km/h (2 Bft) S-SW 197 0 min 0 W/m 3,5 C 4,5 C 14,5 km/h (3 Bft)
16.02.2017 04:24 5,9 C 84 % 1026,8 hPa 0,0 l/m 8,7 km/h (2 Bft) S-SW 202 0 min 0 W/m 3,4 C 4,0 C 14,5 km/h (3 Bft)
16.02.2017 04:27 5,8 C 85 % 1026,8 hPa 0,0 l/m 8,4 km/h (2 Bft) SW 225 0 min 0 W/m 3,5 C 4,1 C 11,3 km/h (2 Bft)
16.02.2017 04:30 5,7 C 85 % 1026,8 hPa 0,0 l/m 8,6 km/h (2 Bft) S-SW 196 0 min 0 W/m 3,4 C 3,9 C 14,5 km/h (3 Bft)
16.02.2017 04:33 5,7 C 86 % 1026,8 hPa 0,0 l/m 8,8 km/h (2 Bft) SW 228 0 min 0 W/m 3,5 C 3,7 C 14,5 km/h (3 Bft)
16.02.2017 04:36 5,7 C 86 % 1026,8 hPa 0,0 l/m 8,8 km/h (2 Bft) SW 232 0 min 0 W/m 3,5 C 3,7 C 12,9 km/h (3 Bft)
16.02.2017 04:39 5,7 C 86 % 1026,8 hPa 0,0 l/m 10,5 km/h (2 Bft) SW 217 0 min 0 W/m 3,5 C 2,5 C 16,1 km/h (3 Bft)
16.02.2017 04:42 5,7 C 86 % 1026,9 hPa 0,0 l/m 9,6 km/h (2 Bft) SW 217 0 min 0 W/m 3,5 C 3,1 C 12,9 km/h (3 Bft)
16.02.2017 04:45 5,7 C 87 % 1026,8 hPa 0,0 l/m 9,4 km/h (2 Bft) SW 227 0 min 0 W/m 3,7 C 3,3 C 17,7 km/h (3 Bft)
16.02.2017 04:48 5,7 C 87 % 1026,8 hPa 0,0 l/m 8,2 km/h (2 Bft) SW 219 0 min 0 W/m 3,7 C 4,2 C 16,1 km/h (3 Bft)
16.02.2017 04:51 5,7 C 87 % 1026,7 hPa 0,0 l/m 9,8 km/h (2 Bft) SW 223 0 min 0 W/m 3,7 C 3,0 C 16,1 km/h (3 Bft)
16.02.2017 04:54 5,6 C 87 % 1026,7 hPa 0,0 l/m 10,7 km/h (2 Bft) SW 217 0 min 0 W/m 3,6 C 2,3 C 16,1 km/h (3 Bft)
16.02.2017 04:57 5,6 C 87 % 1026,7 hPa 0,0 l/m 9,5 km/h (2 Bft) SW 223 0 min 0 W/m 3,6 C 3,1 C 14,5 km/h (3 Bft)
16.02.2017 05:00 5,6 C 88 % 1026,7 hPa 0,0 l/m 9,6 km/h (2 Bft) SW 217 0 min 0 W/m 3,8 C 3,0 C 16,1 km/h (3 Bft)
16.02.2017 05:03 5,7 C 88 % 1026,7 hPa 0,0 l/m 10,9 km/h (2 Bft) SW 227 0 min 0 W/m 3,9 C 2,2 C 16,1 km/h (3 Bft)
16.02.2017 05:06 5,7 C 88 % 1026,7 hPa 0,0 l/m 10,9 km/h (2 Bft) SW 225 0 min 0 W/m 3,9 C 2,2 C 16,1 km/h (3 Bft)
16.02.2017 05:09 5,7 C 89 % 1026,7 hPa 0,0 l/m 10,5 km/h (2 Bft) SW 215 0 min 0 W/m 4,0 C 2,5 C 16,1 km/h (3 Bft)
16.02.2017 05:12 5,7 C 89 % 1026,7 hPa 0,0 l/m 11,8 km/h (2 Bft) SW 230 0 min 0 W/m 4,0 C 1,7 C 19,3 km/h (3 Bft)
16.02.2017 05:15 5,7 C 89 % 1026,7 hPa 0,0 l/m 11,9 km/h (2 Bft) SW 232 0 min 0 W/m 4,0 C 1,6 C 19,3 km/h (3 Bft)
16.02.2017 05:18 5,7 C 89 % 1026,6 hPa 0,0 l/m 11,0 km/h (2 Bft) SW 216 0 min 0 W/m 4,0 C 2,2 C 16,1 km/h (3 Bft)
16.02.2017 05:21 5,7 C 89 % 1026,6 hPa 0,0 l/m 11,2 km/h (2 Bft) S 191 0 min 0 W/m 4,0 C 2,1 C 19,3 km/h (3 Bft)
16.02.2017 05:24 5,7 C 89 % 1026,6 hPa 0,0 l/m 11,2 km/h (2 Bft) W-SW 239 0 min 0 W/m 4,0 C 2,1 C 19,3 km/h (3 Bft)
16.02.2017 05:27 5,7 C 90 % 1026,5 hPa 0,0 l/m 11,7 km/h (2 Bft) S-SW 207 0 min 0 W/m 4,2 C 1,7 C 24,1 km/h (4 Bft)
16.02.2017 05:30 5,7 C 90 % 1026,6 hPa 0,0 l/m 11,1 km/h (2 Bft) SW 234 0 min 0 W/m 4,2 C 2,1 C 19,3 km/h (3 Bft)
16.02.2017 05:33 5,7 C 90 % 1026,5 hPa 0,0 l/m 13,8 km/h (3 Bft) SW 223 0 min 0 W/m 4,2 C 0,5 C 22,5 km/h (4 Bft)
16.02.2017 05:36 5,7 C 90 % 1026,5 hPa 0,0 l/m 13,7 km/h (3 Bft) SW 216 0 min 0 W/m 4,2 C 0,6 C 20,9 km/h (4 Bft)
16.02.2017 05:39 5,7 C 90 % 1026,5 hPa 0,0 l/m 12,8 km/h (3 Bft) S-SW 202 0 min 0 W/m 4,2 C 1,1 C 20,9 km/h (4 Bft)
16.02.2017 05:42 5,8 C 91 % 1026,5 hPa 0,0 l/m 13,6 km/h (3 Bft) W-SW 237 0 min 0 W/m 4,4 C 0,8 C 19,3 km/h (3 Bft)
16.02.2017 05:45 5,8 C 91 % 1026,5 hPa 0,0 l/m 14,5 km/h (3 Bft) SW 214 0 min 0 W/m 4,4 C 0,3 C 20,9 km/h (4 Bft)
16.02.2017 05:48 5,9 C 91 % 1026,4 hPa 0,0 l/m 12,3 km/h (2 Bft) SW 232 0 min 0 W/m 4,5 C 1,6 C 17,7 km/h (3 Bft)
16.02.2017 05:51 5,9 C 91 % 1026,4 hPa 0,0 l/m 15,0 km/h (3 Bft) SW 218 0 min 0 W/m 4,5 C 0,2 C 24,1 km/h (4 Bft)
16.02.2017 05:54 5,9 C 91 % 1026,4 hPa 0,0 l/m 15,7 km/h (3 Bft) W-SW 242 0 min 0 W/m 4,5 C -0,2 C 27,4 km/h (5 Bft)
16.02.2017 05:57 6,0 C 91 % 1026,4 hPa 0,0 l/m 12,8 km/h (3 Bft) S-SW 207 0 min 0 W/m 4,6 C 1,4 C 20,9 km/h (4 Bft)
16.02.2017 06:00 5,9 C 91 % 1026,4 hPa 0,0 l/m 12,9 km/h (3 Bft) S-SW 213 0 min 0 W/m 4,5 C 1,3 C 20,9 km/h (4 Bft)
16.02.2017 06:03 5,9 C 92 % 1026,3 hPa 0,0 l/m 15,9 km/h (3 Bft) SW 236 0 min 0 W/m 4,7 C -0,3 C 27,4 km/h (5 Bft)
16.02.2017 06:06 6,0 C 91 % 1026,2 hPa 0,0 l/m 15,3 km/h (3 Bft) SW 233 0 min 0 W/m 4,6 C 0,1 C 20,9 km/h (4 Bft)
16.02.2017 06:09 6,0 C 91 % 1026,2 hPa 0,0 l/m 13,2 km/h (3 Bft) S-SW 211 0 min 0 W/m 4,6 C 1,2 C 22,5 km/h (4 Bft)
16.02.2017 06:12 5,9 C 91 % 1026,2 hPa 0,0 l/m 14,0 km/h (3 Bft) S-SW 204 0 min 0 W/m 4,5 C 0,7 C 20,9 km/h (4 Bft)
16.02.2017 06:15 5,9 C 92 % 1026,1 hPa 0,0 l/m 14,6 km/h (3 Bft) SW 215 0 min 0 W/m 4,7 C 0,4 C 22,5 km/h (4 Bft)
16.02.2017 06:18 5,9 C 92 % 1026,2 hPa 0,0 l/m 14,4 km/h (3 Bft) S-SW 199 0 min 0 W/m 4,7 C 0,5 C 20,9 km/h (4 Bft)
16.02.2017 06:21 5,8 C 92 % 1026,1 hPa 0,0 l/m 14,0 km/h (3 Bft) S-SW 207 0 min 0 W/m 4,6 C 0,6 C 20,9 km/h (4 Bft)
16.02.2017 06:24 5,8 C 92 % 1026,1 hPa 0,0 l/m 12,2 km/h (2 Bft) S-SW 192 0 min 0 W/m 4,6 C 1,6 C 17,7 km/h (3 Bft)
16.02.2017 06:27 5,7 C 92 % 1026,0 hPa 0,0 l/m 12,8 km/h (3 Bft) SW 217 0 min 0 W/m 4,5 C 1,1 C 17,7 km/h (3 Bft)
16.02.2017 06:30 5,7 C 92 % 1026,0 hPa 0,0 l/m 13,8 km/h (3 Bft) S-SW 204 0 min 0 W/m 4,5 C 0,5 C 20,9 km/h (4 Bft)
16.02.2017 06:33 5,8 C 92 % 1026,0 hPa 0,0 l/m 14,3 km/h (3 Bft) SW 221 0 min 0 W/m 4,6 C 0,4 C 20,9 km/h (4 Bft)
16.02.2017 06:36 5,8 C 92 % 1026,1 hPa 0,0 l/m 14,8 km/h (3 Bft) SW 223 0 min 0 W/m 4,6 C 0,1 C 20,9 km/h (4 Bft)
16.02.2017 06:39 5,8 C 92 % 1026,1 hPa 0,0 l/m 13,0 km/h (3 Bft) SW 236 0 min 0 W/m 4,6 C 1,1 C 19,3 km/h (3 Bft)
16.02.2017 06:42 5,7 C 92 % 1026,0 hPa 0,0 l/m 14,7 km/h (3 Bft) W-SW 238 0 min 0 W/m 4,5 C 0,1 C 20,9 km/h (4 Bft)
16.02.2017 06:45 5,7 C 93 % 1026,0 hPa 0,0 l/m 13,8 km/h (3 Bft) SW 227 0 min 0 W/m 4,7 C 0,5 C 20,9 km/h (4 Bft)
16.02.2017 06:48 5,7 C 93 % 1025,9 hPa 0,0 l/m 15,7 km/h (3 Bft) SW 233 0 min 0 W/m 4,7 C -0,4 C 25,7 km/h (4 Bft)
16.02.2017 06:51 5,7 C 93 % 1025,9 hPa 0,0 l/m 15,1 km/h (3 Bft) W-SW 241 0 min 0 W/m 4,7 C -0,1 C 22,5 km/h (4 Bft)
16.02.2017 06:54 5,7 C 93 % 1025,9 hPa 0,0 l/m 15,4 km/h (3 Bft) SW 219 0 min 0 W/m 4,7 C -0,3 C 25,7 km/h (4 Bft)
16.02.2017 06:57 5,7 C 93 % 1025,9 hPa 0,0 l/m 13,8 km/h (3 Bft) SW 223 0 min 0 W/m 4,7 C 0,5 C 20,9 km/h (4 Bft)
16.02.2017 07:00 5,7 C 93 % 1025,9 hPa 0,0 l/m 14,2 km/h (3 Bft) SW 223 0 min 0 W/m 4,7 C 0,3 C 19,3 km/h (3 Bft)
16.02.2017 07:03 5,6 C 93 % 1025,9 hPa 0,0 l/m 14,1 km/h (3 Bft) S-SW 202 0 min 0 W/m 4,6 C 0,3 C 22,5 km/h (4 Bft)
16.02.2017 07:06 5,7 C 93 % 1025,9 hPa 0,0 l/m 16,1 km/h (3 Bft) SW 223 0 min 0 W/m 4,7 C -0,6 C 22,5 km/h (4 Bft)
16.02.2017 07:09 5,7 C 93 % 1025,9 hPa 0,0 l/m 14,7 km/h (3 Bft) SW 215 0 min 0 W/m 4,7 C 0,1 C 20,9 km/h (4 Bft)
16.02.2017 07:12 5,6 C 93 % 1025,9 hPa 0,0 l/m 14,3 km/h (3 Bft) S-SW 210 0 min 0 W/m 4,6 C 0,2 C 24,1 km/h (4 Bft)
16.02.2017 07:15 5,6 C 93 % 1025,9 hPa 0,0 l/m 14,9 km/h (3 Bft) SW 222 0 min 0 W/m 4,6 C -0,1 C 24,1 km/h (4 Bft)
16.02.2017 07:18 5,6 C 93 % 1025,9 hPa 0,0 l/m 15,3 km/h (3 Bft) S 187 0 min 0 W/m 4,6 C -0,3 C 20,9 km/h (4 Bft)
16.02.2017 07:21 5,6 C 93 % 1025,9 hPa 0,0 l/m 15,9 km/h (3 Bft) SW 216 0 min 0 W/m 4,6 C -0,6 C 24,1 km/h (4 Bft)
16.02.2017 07:24 5,5 C 93 % 1025,8 hPa 0,0 l/m 16,4 km/h (3 Bft) W-SW 238 0 min 0 W/m 4,5 C -1,0 C 24,1 km/h (4 Bft)
16.02.2017 07:27 5,4 C 93 % 1025,9 hPa 0,0 l/m 15,3 km/h (3 Bft) SW 221 0 min 0 W/m 4,4 C -0,6 C 25,7 km/h (4 Bft)
16.02.2017 07:30 5,4 C 93 % 1025,9 hPa 0,0 l/m 16,0 km/h (3 Bft) W-SW 254 0 min 0 W/m 4,4 C -0,9 C 24,1 km/h (4 Bft)
16.02.2017 07:33 5,4 C 93 % 1025,9 hPa 0,0 l/m 17,5 km/h (3 Bft) S-SW 209 0 min 0 W/m 4,4 C -1,6 C 24,1 km/h (4 Bft)
16.02.2017 07:36 5,4 C 93 % 1025,9 hPa 0,0 l/m 16,0 km/h (3 Bft) S-SW 202 0 min 0 W/m 4,4 C -0,9 C 20,9 km/h (4 Bft)
16.02.2017 07:39 5,4 C 93 % 1025,8 hPa 0,0 l/m 14,7 km/h (3 Bft) S-SW 209 0 min 0 W/m 4,4 C -0,3 C 22,5 km/h (4 Bft)
16.02.2017 07:42 5,3 C 93 % 1025,8 hPa 0,0 l/m 13,9 km/h (3 Bft) S-SW 194 0 min 0 W/m 4,3 C 0,0 C 22,5 km/h (4 Bft)
16.02.2017 07:45 5,3 C 93 % 1025,8 hPa 0,0 l/m 15,0 km/h (3 Bft) SW 215 0 min 0 W/m 4,3 C -0,6 C 25,7 km/h (4 Bft)
16.02.2017 07:48 5,2 C 93 % 1025,9 hPa 0,0 l/m 15,5 km/h (3 Bft) W-SW 238 0 min 0 W/m 4,2 C -0,9 C 22,5 km/h (4 Bft)
16.02.2017 07:51 5,3 C 94 % 1025,8 hPa 0,0 l/m 15,7 km/h (3 Bft) S-SW 195 0 min 5 W/m 4,4 C -0,9 C 22,5 km/h (4 Bft)
16.02.2017 07:54 5,3 C 94 % 1025,9 hPa 0,0 l/m 17,2 km/h (3 Bft) SW 234 0 min 5 W/m 4,4 C -1,6 C 24,1 km/h (4 Bft)
16.02.2017 07:57 5,2 C 94 % 1025,9 hPa 0,0 l/m 15,7 km/h (3 Bft) S-SW 213 0 min 7 W/m 4,3 C -1,0 C 22,5 km/h (4 Bft)
16.02.2017 08:00 5,2 C 94 % 1025,9 hPa 0,0 l/m 16,0 km/h (3 Bft) W-SW 243 0 min 7 W/m 4,3 C -1,2 C 22,5 km/h (4 Bft)
16.02.2017 08:03 5,2 C 94 % 1025,8 hPa 0,0 l/m 14,3 km/h (3 Bft) S-SW 201 0 min 7 W/m 4,3 C -0,3 C 20,9 km/h (4 Bft)
16.02.2017 08:06 5,2 C 94 % 1025,8 hPa 0,0 l/m 16,3 km/h (3 Bft) SW 232 0 min 9 W/m 4,3 C -1,3 C 24,1 km/h (4 Bft)
16.02.2017 08:09 5,2 C 94 % 1025,9 hPa 0,0 l/m 17,6 km/h (3 Bft) S-SW 209 0 min 9 W/m 4,3 C -1,9 C 27,4 km/h (5 Bft)
16.02.2017 08:12 5,3 C 94 % 1025,8 hPa 0,0 l/m 18,1 km/h (3 Bft) SW 214 0 min 9 W/m 4,4 C -2,0 C 27,4 km/h (5 Bft)
16.02.2017 08:15 5,3 C 94 % 1025,8 hPa 0,0 l/m 16,4 km/h (3 Bft) SW 232 0 min 9 W/m 4,4 C -1,2 C 30,6 km/h (5 Bft)
16.02.2017 08:18 5,4 C 94 % 1025,9 hPa 0,0 l/m 18,0 km/h (3 Bft) W-SW 240 0 min 12 W/m 4,5 C -1,8 C 30,6 km/h (5 Bft)
16.02.2017 08:21 5,3 C 94 % 1025,8 hPa 0,0 l/m 18,2 km/h (3 Bft) SW 227 0 min 18 W/m 4,4 C -2,0 C 25,7 km/h (4 Bft)
16.02.2017 08:24 5,4 C 94 % 1025,7 hPa 0,0 l/m 15,9 km/h (3 Bft) S 188 0 min 21 W/m 4,5 C -0,9 C 24,1 km/h (4 Bft)
16.02.2017 08:27 5,4 C 94 % 1025,7 hPa 0,0 l/m 18,5 km/h (3 Bft) S-SW 194 0 min 28 W/m 4,5 C -2,0 C 32,2 km/h (5 Bft)
16.02.2017 08:30 5,5 C 94 % 1025,6 hPa 0,0 l/m 17,4 km/h (3 Bft) SW 221 0 min 25 W/m 4,6 C -1,4 C 29,0 km/h (5 Bft)
16.02.2017 08:33 5,6 C 94 % 1025,6 hPa 0,0 l/m 17,0 km/h (3 Bft) W-SW 241 0 min 16 W/m 4,7 C -1,1 C 29,0 km/h (5 Bft)
16.02.2017 08:36 5,6 C 94 % 1025,7 hPa 0,0 l/m 17,4 km/h (3 Bft) S 188 0 min 14 W/m 4,7 C -1,3 C 22,5 km/h (4 Bft)
16.02.2017 08:39 5,6 C 94 % 1025,7 hPa 0,0 l/m 16,4 km/h (3 Bft) SW 235 0 min 14 W/m 4,7 C -0,9 C 22,5 km/h (4 Bft)
16.02.2017 08:42 5,5 C 94 % 1025,7 hPa 0,0 l/m 18,4 km/h (3 Bft) SW 226 0 min 19 W/m 4,6 C -1,9 C 33,8 km/h (5 Bft)
16.02.2017 08:45 5,5 C 94 % 1025,7 hPa 0,0 l/m 19,6 km/h (3 Bft) S-SW 193 0 min 44 W/m 4,6 C -2,4 C 30,6 km/h (5 Bft)
16.02.2017 08:48 5,6 C 94 % 1025,7 hPa 0,0 l/m 18,4 km/h (3 Bft) W-SW 255 0 min 39 W/m 4,7 C -1,8 C 25,7 km/h (4 Bft)
16.02.2017 08:51 5,6 C 94 % 1025,7 hPa 0,0 l/m 20,0 km/h (4 Bft) SW 221 0 min 46 W/m 4,7 C -2,4 C 32,2 km/h (5 Bft)
16.02.2017 08:54 5,7 C 94 % 1025,8 hPa 0,0 l/m 20,4 km/h (4 Bft) S-SW 203 0 min 58 W/m 4,8 C -2,4 C 29,0 km/h (5 Bft)
16.02.2017 08:57 5,7 C 94 % 1025,8 hPa 0,0 l/m 19,6 km/h (3 Bft) SW 221 0 min 47 W/m 4,8 C -2,1 C 27,4 km/h (5 Bft)
16.02.2017 09:00 5,7 C 94 % 1025,7 hPa 0,0 l/m 22,9 km/h (4 Bft) SW 232 0 min 40 W/m 4,8 C -3,3 C 35,4 km/h (5 Bft)
16.02.2017 09:03 5,7 C 94 % 1025,7 hPa 0,0 l/m 23,9 km/h (4 Bft) SW 214 0 min 25 W/m 4,8 C -3,6 C 40,2 km/h (6 Bft)
16.02.2017 09:06 5,7 C 94 % 1025,7 hPa 0,0 l/m 21,4 km/h (4 Bft) SW 217 0 min 26 W/m 4,8 C -2,8 C 27,4 km/h (5 Bft)
16.02.2017 09:09 5,6 C 94 % 1025,8 hPa 0,0 l/m 19,7 km/h (3 Bft) W-SW 253 0 min 47 W/m 4,7 C -2,3 C 27,4 km/h (5 Bft)
16.02.2017 09:12 5,5 C 93 % 1025,9 hPa 0,0 l/m 21,6 km/h (4 Bft) SW 223 0 min 32 W/m 4,5 C -3,1 C 30,6 km/h (5 Bft)
16.02.2017 09:15 5,4 C 94 % 1025,9 hPa 0,0 l/m 22,0 km/h (4 Bft) S-SW 196 0 min 56 W/m 4,5 C -3,4 C 30,6 km/h (5 Bft)
16.02.2017 09:18 5,4 C 94 % 1025,9 hPa 0,0 l/m 21,5 km/h (4 Bft) S-SW 205 0 min 53 W/m 4,5 C -3,2 C 33,8 km/h (5 Bft)
16.02.2017 09:21 5,4 C 94 % 1025,9 hPa 0,0 l/m 25,1 km/h (4 Bft) S-SW 213 0 min 74 W/m 4,5 C -4,4 C 37,0 km/h (5 Bft)
16.02.2017 09:24 5,4 C 94 % 1025,9 hPa 0,0 l/m 23,9 km/h (4 Bft) S-SW 204 0 min 81 W/m 4,5 C -4,0 C 38,6 km/h (6 Bft)
16.02.2017 09:27 5,4 C 94 % 1025,9 hPa 0,0 l/m 23,2 km/h (4 Bft) SW 216 0 min 95 W/m 4,5 C -3,8 C 32,2 km/h (5 Bft)
16.02.2017 09:30 5,5 C 95 % 1025,9 hPa 0,0 l/m 22,3 km/h (4 Bft) SW 214 0 min 69 W/m 4,8 C -3,4 C 37,0 km/h (5 Bft)
16.02.2017 09:33 5,5 C 95 % 1025,9 hPa 0,0 l/m 20,8 km/h (4 Bft) SW 217 0 min 60 W/m 4,8 C -2,8 C 27,4 km/h (5 Bft)
16.02.2017 09:36 5,5 C 95 % 1025,9 hPa 0,0 l/m 19,1 km/h (3 Bft) S-SW 213 0 min 53 W/m 4,8 C -2,2 C 29,0 km/h (5 Bft)
16.02.2017 09:39 5,6 C 95 % 1025,9 hPa 0,0 l/m 21,3 km/h (4 Bft) S-SW 205 0 min 37 W/m 4,9 C -2,9 C 29,0 km/h (5 Bft)
16.02.2017 09:42 5,6 C 95 % 1025,9 hPa 0,0 l/m 18,0 km/h (3 Bft) S-SW 200 0 min 44 W/m 4,9 C -1,6 C 25,7 km/h (4 Bft)
16.02.2017 09:45 5,6 C 95 % 1025,9 hPa 0,0 l/m 19,7 km/h (3 Bft) S-SW 201 0 min 54 W/m 4,9 C -2,3 C 32,2 km/h (5 Bft)
16.02.2017 09:48 5,6 C 95 % 1025,9 hPa 0,0 l/m 18,6 km/h (3 Bft) SW 223 0 min 46 W/m 4,9 C -1,8 C 30,6 km/h (5 Bft)
16.02.2017 09:51 5,6 C 95 % 1025,9 hPa 0,0 l/m 20,1 km/h (4 Bft) SW 234 0 min 54 W/m 4,9 C -2,4 C 27,4 km/h (5 Bft)
16.02.2017 09:54 5,6 C 95 % 1025,8 hPa 0,0 l/m 19,2 km/h (3 Bft) W-SW 241 0 min 62 W/m 4,9 C -2,1 C 27,4 km/h (5 Bft)
16.02.2017 09:57 5,6 C 95 % 1025,8 hPa 0,0 l/m 19,0 km/h (3 Bft) SW 235 0 min 58 W/m 4,9 C -2,0 C 29,0 km/h (5 Bft)
16.02.2017 10:00 5,6 C 95 % 1025,8 hPa 0,0 l/m 18,5 km/h (3 Bft) SW 230 0 min 39 W/m 4,9 C -1,8 C 25,7 km/h (4 Bft)
16.02.2017 10:03 5,6 C 95 % 1025,9 hPa 0,0 l/m 18,0 km/h (3 Bft) SW 217 0 min 33 W/m 4,9 C -1,6 C 29,0 km/h (5 Bft)
16.02.2017 10:06 5,6 C 95 % 1025,8 hPa 0,0 l/m 17,5 km/h (3 Bft) S-SW 212 0 min 25 W/m 4,9 C -1,4 C 30,6 km/h (5 Bft)
16.02.2017 10:09 5,5 C 95 % 1025,8 hPa 0,0 l/m 19,6 km/h (3 Bft) W-SW 248 0 min 54 W/m 4,8 C -2,4 C 27,4 km/h (5 Bft)
16.02.2017 10:12 5,5 C 95 % 1025,9 hPa 0,0 l/m 15,8 km/h (3 Bft) SW 235 0 min 47 W/m 4,8 C -0,7 C 25,7 km/h (4 Bft)
16.02.2017 10:15 5,6 C 95 % 1025,8 hPa 0,0 l/m 15,5 km/h (3 Bft) SW 229 0 min 47 W/m 4,9 C -0,4 C 27,4 km/h (5 Bft)
16.02.2017 10:18 5,6 C 95 % 1025,9 hPa 0,0 l/m 15,2 km/h (3 Bft) SW 215 0 min 51 W/m 4,9 C -0,3 C 22,5 km/h (4 Bft)
16.02.2017 10:21 5,6 C 95 % 1025,8 hPa 0,0 l/m 15,1 km/h (3 Bft) S-SW 196 0 min 51 W/m 4,9 C -0,2 C 22,5 km/h (4 Bft)
16.02.2017 10:24 5,7 C 96 % 1025,9 hPa 0,0 l/m 18,2 km/h (3 Bft) SW 224 0 min 54 W/m 5,1 C -1,5 C 30,6 km/h (5 Bft)
16.02.2017 10:27 5,7 C 96 % 1025,9 hPa 0,0 l/m 19,6 km/h (3 Bft) SW 233 0 min 53 W/m 5,1 C -2,1 C 29,0 km/h (5 Bft)
16.02.2017 10:30 5,8 C 96 % 1025,9 hPa 0,0 l/m 20,0 km/h (4 Bft) W-SW 237 0 min 54 W/m 5,2 C -2,1 C 29,0 km/h (5 Bft)
16.02.2017 10:33 5,8 C 96 % 1025,9 hPa 0,0 l/m 16,5 km/h (3 Bft) SW 223 0 min 46 W/m 5,2 C -0,7 C 24,1 km/h (4 Bft)
16.02.2017 10:36 5,8 C 96 % 1025,9 hPa 0,0 l/m 19,3 km/h (3 Bft) S-SW 213 0 min 51 W/m 5,2 C -1,9 C 29,0 km/h (5 Bft)
16.02.2017 10:39 5,8 C 96 % 1025,9 hPa 0,0 l/m 20,1 km/h (4 Bft) S-SW 211 0 min 51 W/m 5,2 C -2,2 C 30,6 km/h (5 Bft)
16.02.2017 10:42 5,8 C 96 % 1026,0 hPa 0,0 l/m 19,6 km/h (3 Bft) SW 221 0 min 56 W/m 5,2 C -2,0 C 33,8 km/h (5 Bft)
16.02.2017 10:45 5,8 C 96 % 1026,0 hPa 0,0 l/m 20,3 km/h (4 Bft) W-SW 254 0 min 47 W/m 5,2 C -2,3 C 27,4 km/h (5 Bft)
16.02.2017 10:48 5,8 C 96 % 1026,0 hPa 0,0 l/m 23,1 km/h (4 Bft) S-SW 207 0 min 56 W/m 5,2 C -3,2 C 33,8 km/h (5 Bft)
16.02.2017 10:51 5,8 C 96 % 1026,0 hPa 0,0 l/m 19,6 km/h (3 Bft) SW 214 0 min 56 W/m 5,2 C -2,0 C 27,4 km/h (5 Bft)
16.02.2017 10:54 5,8 C 96 % 1026,0 hPa 0,0 l/m 19,3 km/h (3 Bft) S-SW 210 0 min 56 W/m 5,2 C -1,9 C 29,0 km/h (5 Bft)
16.02.2017 10:57 5,7 C 96 % 1026,0 hPa 0,0 l/m 21,7 km/h (4 Bft) S-SW 209 0 min 49 W/m 5,1 C -2,9 C 30,6 km/h (5 Bft)
16.02.2017 11:00 5,7 C 96 % 1026,0 hPa 0,0 l/m 20,0 km/h (4 Bft) S-SW 202 0 min 58 W/m 5,1 C -2,3 C 27,4 km/h (5 Bft)
16.02.2017 11:03 5,7 C 96 % 1026,0 hPa 0,0 l/m 23,3 km/h (4 Bft) SW 232 0 min 74 W/m 5,1 C -3,4 C 33,8 km/h (5 Bft)
16.02.2017 11:06 5,7 C 96 % 1026,0 hPa 0,0 l/m 19,3 km/h (3 Bft) S-SW 201 0 min 84 W/m 5,1 C -2,0 C 27,4 km/h (5 Bft)
16.02.2017 11:09 5,8 C 96 % 1025,8 hPa 0,0 l/m 20,3 km/h (4 Bft) W-SW 256 0 min 76 W/m 5,2 C -2,3 C 29,0 km/h (5 Bft)
16.02.2017 11:12 5,8 C 96 % 1025,9 hPa 0,0 l/m 19,1 km/h (3 Bft) SW 225 0 min 72 W/m 5,2 C -1,8 C 29,0 km/h (5 Bft)
16.02.2017 11:15 5,8 C 96 % 1025,9 hPa 0,0 l/m 18,6 km/h (3 Bft) SW 227 0 min 72 W/m 5,2 C -1,6 C 25,7 km/h (4 Bft)
16.02.2017 11:18 5,8 C 96 % 1025,8 hPa 0,0 l/m 18,7 km/h (3 Bft) SW 227 0 min 76 W/m 5,2 C -1,6 C 29,0 km/h (5 Bft)
16.02.2017 11:21 5,8 C 96 % 1025,8 hPa 0,0 l/m 20,3 km/h (4 Bft) S-SW 194 0 min 76 W/m 5,2 C -2,3 C 32,2 km/h (5 Bft)
16.02.2017 11:24 5,8 C 96 % 1025,9 hPa 0,0 l/m 19,6 km/h (3 Bft) SW 221 0 min 76 W/m 5,2 C -2,0 C 32,2 km/h (5 Bft)
16.02.2017 11:27 5,9 C 96 % 1025,9 hPa 0,0 l/m 20,5 km/h (4 Bft) SW 225 0 min 65 W/m 5,3 C -2,2 C 29,0 km/h (5 Bft)
16.02.2017 11:30 5,9 C 96 % 1025,9 hPa 0,0 l/m 20,7 km/h (4 Bft) SW 219 0 min 67 W/m 5,3 C -2,3 C 29,0 km/h (5 Bft)
16.02.2017 11:33 5,9 C 96 % 1025,8 hPa 0,0 l/m 21,5 km/h (4 Bft) S-SW 201 0 min 84 W/m 5,3 C -2,6 C 32,2 km/h (5 Bft)
16.02.2017 11:36 6,1 C 96 % 1025,8 hPa 0,0 l/m 20,2 km/h (4 Bft) W-SW 249 0 min 76 W/m 5,5 C -1,8 C 32,2 km/h (5 Bft)
16.02.2017 11:39 6,1 C 96 % 1025,8 hPa 0,0 l/m 18,6 km/h (3 Bft) S-SW 206 0 min 79 W/m 5,5 C -1,2 C 25,7 km/h (4 Bft)
16.02.2017 11:42 6,1 C 96 % 1025,8 hPa 0,0 l/m 17,4 km/h (3 Bft) SW 233 0 min 74 W/m 5,5 C -0,7 C 24,1 km/h (4 Bft)
16.02.2017 11:45 6,1 C 96 % 1025,8 hPa 0,0 l/m 18,1 km/h (3 Bft) SW 223 0 min 77 W/m 5,5 C -1,0 C 27,4 km/h (5 Bft)
16.02.2017 11:48 6,2 C 96 % 1025,8 hPa 0,0 l/m 15,9 km/h (3 Bft) W 265 0 min 76 W/m 5,6 C 0,1 C 20,9 km/h (4 Bft)
16.02.2017 11:51 6,2 C 96 % 1025,7 hPa 0,0 l/m 17,3 km/h (3 Bft) SW 225 0 min 81 W/m 5,6 C -0,5 C 29,0 km/h (5 Bft)
16.02.2017 11:54 6,2 C 96 % 1025,7 hPa 0,0 l/m 17,7 km/h (3 Bft) SW 234 0 min 65 W/m 5,6 C -0,7 C 24,1 km/h (4 Bft)
16.02.2017 11:57 6,2 C 96 % 1025,7 hPa 0,0 l/m 15,2 km/h (3 Bft) W-SW 240 0 min 74 W/m 5,6 C 0,4 C 20,9 km/h (4 Bft)
16.02.2017 12:00 6,2 C 96 % 1025,7 hPa 0,0 l/m 13,3 km/h (3 Bft) SW 215 0 min 58 W/m 5,6 C 1,4 C 19,3 km/h (3 Bft)
16.02.2017 12:03 6,1 C 96 % 1025,7 hPa 0,0 l/m 16,4 km/h (3 Bft) SW 223 0 min 47 W/m 5,5 C -0,3 C 25,7 km/h (4 Bft)
16.02.2017 12:06 6,1 C 96 % 1025,7 hPa 0,0 l/m 11,9 km/h (2 Bft) SW 234 0 min 49 W/m 5,5 C 2,1 C 17,7 km/h (3 Bft)
16.02.2017 12:09 6,1 C 96 % 1025,6 hPa 0,0 l/m 17,4 km/h (3 Bft) SW 228 0 min 58 W/m 5,5 C -0,7 C 25,7 km/h (4 Bft)
16.02.2017 12:12 6,1 C 96 % 1025,6 hPa 0,0 l/m 16,1 km/h (3 Bft) S-SW 209 0 min 53 W/m 5,5 C -0,1 C 29,0 km/h (5 Bft)
16.02.2017 12:15 6,1 C 96 % 1025,6 hPa 0,0 l/m 14,7 km/h (3 Bft) S-SW 209 0 min 58 W/m 5,5 C 0,6 C 22,5 km/h (4 Bft)
16.02.2017 12:18 6,1 C 96 % 1025,5 hPa 0,0 l/m 15,9 km/h (3 Bft) S-SW 211 0 min 74 W/m 5,5 C -0,0 C 30,6 km/h (5 Bft)
16.02.2017 12:21 6,1 C 96 % 1025,5 hPa 0,0 l/m 15,9 km/h (3 Bft) SW 215 0 min 65 W/m 5,5 C -0,0 C 24,1 km/h (4 Bft)
16.02.2017 12:24 6,1 C 96 % 1025,5 hPa 0,0 l/m 15,2 km/h (3 Bft) S-SW 192 0 min 65 W/m 5,5 C 0,3 C 25,7 km/h (4 Bft)
16.02.2017 12:27 6,1 C 96 % 1025,5 hPa 0,0 l/m 18,3 km/h (3 Bft) SW 228 0 min 63 W/m 5,5 C -1,1 C 30,6 km/h (5 Bft)
16.02.2017 12:30 6,1 C 96 % 1025,5 hPa 0,0 l/m 18,4 km/h (3 Bft) S-SW 206 0 min 53 W/m 5,5 C -1,1 C 29,0 km/h (5 Bft)
16.02.2017 12:33 6,0 C 96 % 1025,5 hPa 0,0 l/m 16,3 km/h (3 Bft) W-SW 238 0 min 63 W/m 5,4 C -0,3 C 25,7 km/h (4 Bft)
16.02.2017 12:36 6,0 C 96 % 1025,4 hPa 0,0 l/m 17,7 km/h (3 Bft) SW 218 0 min 60 W/m 5,4 C -1,0 C 27,4 km/h (5 Bft)
16.02.2017 12:39 6,0 C 96 % 1025,4 hPa 0,0 l/m 19,8 km/h (3 Bft) S-SW 200 0 min 70 W/m 5,4 C -1,8 C 27,4 km/h (5 Bft)
16.02.2017 12:42 5,9 C 96 % 1025,4 hPa 0,0 l/m 20,1 km/h (4 Bft) S-SW 203 0 min 74 W/m 5,3 C -2,0 C 30,6 km/h (5 Bft)
16.02.2017 12:45 6,0 C 96 % 1025,3 hPa 0,0 l/m 15,1 km/h (3 Bft) SW 236 0 min 70 W/m 5,4 C 0,2 C 22,5 km/h (4 Bft)
16.02.2017 12:48 6,0 C 96 % 1025,3 hPa 0,0 l/m 16,0 km/h (3 Bft) SW 215 0 min 72 W/m 5,4 C -0,2 C 24,1 km/h (4 Bft)
16.02.2017 12:51 6,0 C 96 % 1025,3 hPa 0,0 l/m 17,0 km/h (3 Bft) S-SW 207 0 min 72 W/m 5,4 C -0,6 C 29,0 km/h (5 Bft)
16.02.2017 12:54 6,0 C 96 % 1025,2 hPa 0,0 l/m 17,2 km/h (3 Bft) W 261 0 min 62 W/m 5,4 C -0,7 C 27,4 km/h (5 Bft)
16.02.2017 12:57 5,9 C 96 % 1025,2 hPa 0,0 l/m 18,1 km/h (3 Bft) SW 232 0 min 63 W/m 5,3 C -1,2 C 29,0 km/h (5 Bft)
16.02.2017 13:00 6,0 C 96 % 1025,2 hPa 0,0 l/m 16,4 km/h (3 Bft) SW 232 0 min 47 W/m 5,4 C -0,4 C 25,7 km/h (4 Bft)
16.02.2017 13:03 5,9 C 96 % 1025,2 hPa 0,0 l/m 19,2 km/h (3 Bft) S-SW 196 0 min 67 W/m 5,3 C -1,7 C 35,4 km/h (5 Bft)
16.02.2017 13:06 5,9 C 96 % 1025,2 hPa 0,0 l/m 19,1 km/h (3 Bft) SW 222 0 min 56 W/m 5,3 C -1,7 C 27,4 km/h (5 Bft)
16.02.2017 13:09 5,9 C 96 % 1025,2 hPa 0,0 l/m 18,0 km/h (3 Bft) W-SW 238 0 min 49 W/m 5,3 C -1,2 C 27,4 km/h (5 Bft)
16.02.2017 13:12 5,9 C 96 % 1025,2 hPa 0,0 l/m 16,9 km/h (3 Bft) SW 234 0 min 54 W/m 5,3 C -0,7 C 27,4 km/h (5 Bft)
16.02.2017 13:15 5,9 C 96 % 1025,2 hPa 0,0 l/m 14,8 km/h (3 Bft) S-SW 194 0 min 51 W/m 5,3 C 0,3 C 19,3 km/h (3 Bft)
16.02.2017 13:18 5,9 C 96 % 1025,2 hPa 0,0 l/m 16,6 km/h (3 Bft) SW 220 0 min 54 W/m 5,3 C -0,6 C 29,0 km/h (5 Bft)
16.02.2017 13:21 5,9 C 96 % 1025,1 hPa 0,0 l/m 19,3 km/h (3 Bft) S-SW 209 0 min 49 W/m 5,3 C -1,7 C 35,4 km/h (5 Bft)
16.02.2017 13:24 5,9 C 96 % 1025,1 hPa 0,0 l/m 16,9 km/h (3 Bft) SW 217 0 min 56 W/m 5,3 C -0,7 C 27,4 km/h (5 Bft)
16.02.2017 13:27 5,9 C 96 % 1025,1 hPa 0,0 l/m 16,6 km/h (3 Bft) SW 228 0 min 74 W/m 5,3 C -0,6 C 24,1 km/h (4 Bft)
16.02.2017 13:30 5,9 C 96 % 1025,1 hPa 0,0 l/m 16,2 km/h (3 Bft) S-SW 192 0 min 62 W/m 5,3 C -0,4 C 24,1 km/h (4 Bft)
16.02.2017 13:33 5,9 C 96 % 1025,1 hPa 0,0 l/m 17,3 km/h (3 Bft) SW 215 0 min 56 W/m 5,3 C -0,9 C 27,4 km/h (5 Bft)
16.02.2017 13:36 5,9 C 96 % 1025,0 hPa 0,0 l/m 15,1 km/h (3 Bft) S-SW 213 0 min 54 W/m 5,3 C 0,1 C 22,5 km/h (4 Bft)
16.02.2017 13:39 5,9 C 96 % 1025,0 hPa 0,0 l/m 16,8 km/h (3 Bft) SW 236 0 min 54 W/m 5,3 C -0,7 C 29,0 km/h (5 Bft)
16.02.2017 13:42 5,9 C 96 % 1024,9 hPa 0,0 l/m 17,5 km/h (3 Bft) S-SW 196 0 min 60 W/m 5,3 C -1,0 C 25,7 km/h (4 Bft)
16.02.2017 13:45 5,9 C 97 % 1024,9 hPa 0,0 l/m 15,5 km/h (3 Bft) W-SW 240 0 min 62 W/m 5,5 C -0,1 C 24,1 km/h (4 Bft)
16.02.2017 13:48 5,9 C 97 % 1024,9 hPa 0,0 l/m 14,9 km/h (3 Bft) SW 229 0 min 58 W/m 5,5 C 0,2 C 27,4 km/h (5 Bft)
16.02.2017 13:51 5,9 C 97 % 1024,9 hPa 0,0 l/m 14,3 km/h (3 Bft) SW 236 0 min 51 W/m 5,5 C 0,5 C 19,3 km/h (3 Bft)
16.02.2017 13:54 5,8 C 97 % 1024,9 hPa 0,0 l/m 13,4 km/h (3 Bft) W-SW 247 0 min 42 W/m 5,4 C 0,9 C 22,5 km/h (4 Bft)
16.02.2017 13:57 5,8 C 97 % 1024,9 hPa 0,0 l/m 14,8 km/h (3 Bft) SW 225 0 min 42 W/m 5,4 C 0,1 C 22,5 km/h (4 Bft)
16.02.2017 14:00 5,8 C 97 % 1024,8 hPa 0,0 l/m 15,0 km/h (3 Bft) S-SW 212 0 min 53 W/m 5,4 C 0,0 C 20,9 km/h (4 Bft)
16.02.2017 14:03 5,8 C 97 % 1024,8 hPa 0,0 l/m 15,5 km/h (3 Bft) SW 222 0 min 51 W/m 5,4 C -0,2 C 29,0 km/h (5 Bft)
16.02.2017 14:06 5,8 C 97 % 1024,7 hPa 0,0 l/m 17,2 km/h (3 Bft) W-SW 247 0 min 46 W/m 5,4 C -1,0 C 27,4 km/h (5 Bft)
16.02.2017 14:09 5,8 C 97 % 1024,7 hPa 0,0 l/m 15,8 km/h (3 Bft) W-SW 241 0 min 47 W/m 5,4 C -0,3 C 25,7 km/h (4 Bft)
16.02.2017 14:12 5,8 C 97 % 1024,7 hPa 0,0 l/m 14,3 km/h (3 Bft) SW 220 0 min 56 W/m 5,4 C 0,4 C 20,9 km/h (4 Bft)
16.02.2017 14:15 5,8 C 97 % 1024,7 hPa 0,0 l/m 17,3 km/h (3 Bft) W-SW 240 0 min 44 W/m 5,4 C -1,0 C 30,6 km/h (5 Bft)
16.02.2017 14:18 5,8 C 97 % 1024,6 hPa 0,0 l/m 16,0 km/h (3 Bft) S-SW 211 0 min 53 W/m 5,4 C -0,4 C 25,7 km/h (4 Bft)
16.02.2017 14:21 5,8 C 97 % 1024,7 hPa 0,0 l/m 15,6 km/h (3 Bft) SW 223 0 min 46 W/m 5,4 C -0,2 C 20,9 km/h (4 Bft)
16.02.2017 14:24 5,8 C 97 % 1024,6 hPa 0,0 l/m 15,8 km/h (3 Bft) W-SW 237 0 min 51 W/m 5,4 C -0,3 C 24,1 km/h (4 Bft)
16.02.2017 14:27 5,9 C 97 % 1024,6 hPa 0,0 l/m 14,0 km/h (3 Bft) S-SW 211 0 min 40 W/m 5,5 C 0,7 C 22,5 km/h (4 Bft)
16.02.2017 14:30 5,9 C 97 % 1024,5 hPa 0,0 l/m 15,3 km/h (3 Bft) SW 232 0 min 51 W/m 5,5 C 0,0 C 22,5 km/h (4 Bft)
16.02.2017 14:33 5,9 C 97 % 1024,4 hPa 0,0 l/m 16,1 km/h (3 Bft) S-SW 207 0 min 42 W/m 5,5 C -0,4 C 22,5 km/h (4 Bft)
16.02.2017 14:36 5,9 C 97 % 1024,3 hPa 0,0 l/m 15,3 km/h (3 Bft) S 184 0 min 40 W/m 5,5 C 0,0 C 22,5 km/h (4 Bft)
16.02.2017 14:39 6,0 C 97 % 1024,3 hPa 0,0 l/m 16,3 km/h (3 Bft) SW 234 0 min 54 W/m 5,6 C -0,3 C 27,4 km/h (5 Bft)
16.02.2017 14:42 6,0 C 97 % 1024,2 hPa 0,0 l/m 14,3 km/h (3 Bft) W-SW 240 0 min 51 W/m 5,6 C 0,6 C 22,5 km/h (4 Bft)
16.02.2017 14:45 6,1 C 97 % 1024,2 hPa 0,0 l/m 17,8 km/h (3 Bft) W-SW 247 0 min 53 W/m 5,7 C -0,9 C 25,7 km/h (4 Bft)
16.02.2017 14:48 6,1 C 97 % 1024,2 hPa 0,0 l/m 15,0 km/h (3 Bft) S-SW 205 0 min 47 W/m 5,7 C 0,4 C 24,1 km/h (4 Bft)
16.02.2017 14:51 6,1 C 97 % 1024,2 hPa 0,0 l/m 13,9 km/h (3 Bft) W-SW 253 0 min 47 W/m 5,7 C 1,0 C 25,7 km/h (4 Bft)
16.02.2017 14:54 6,1 C 97 % 1024,2 hPa 0,0 l/m 13,2 km/h (3 Bft) SW 226 0 min 44 W/m 5,7 C 1,3 C 20,9 km/h (4 Bft)
16.02.2017 14:57 6,1 C 97 % 1024,2 hPa 0,0 l/m 13,9 km/h (3 Bft) SW 232 0 min 39 W/m 5,7 C 1,0 C 22,5 km/h (4 Bft)
16.02.2017 15:00 6,1 C 97 % 1024,2 hPa 0,0 l/m 10,9 km/h (2 Bft) SW 219 0 min 30 W/m 5,7 C 2,7 C 17,7 km/h (3 Bft)
16.02.2017 15:03 6,1 C 97 % 1024,1 hPa 0,0 l/m 11,4 km/h (2 Bft) SW 219 0 min 30 W/m 5,7 C 2,4 C 17,7 km/h (3 Bft)
16.02.2017 15:06 6,0 C 97 % 1024,1 hPa 0,0 l/m 12,9 km/h (3 Bft) SW 217 0 min 30 W/m 5,6 C 1,4 C 19,3 km/h (3 Bft)
16.02.2017 15:09 6,0 C 97 % 1024,2 hPa 0,0 l/m 11,9 km/h (2 Bft) W-SW 237 0 min 28 W/m 5,6 C 2,0 C 22,5 km/h (4 Bft)
16.02.2017 15:12 6,0 C 97 % 1024,1 hPa 0,0 l/m 13,7 km/h (3 Bft) SW 219 0 min 21 W/m 5,6 C 1,0 C 20,9 km/h (4 Bft)
16.02.2017 15:15 6,0 C 97 % 1024,1 hPa 0,0 l/m 14,3 km/h (3 Bft) SW 217 0 min 21 W/m 5,6 C 0,6 C 20,9 km/h (4 Bft)
16.02.2017 15:18 6,0 C 97 % 1024,1 hPa 0,0 l/m 13,9 km/h (3 Bft) W-SW 255 0 min 19 W/m 5,6 C 0,8 C 22,5 km/h (4 Bft)
16.02.2017 15:21 5,9 C 97 % 1024,0 hPa 0,0 l/m 13,7 km/h (3 Bft) S-SW 206 0 min 26 W/m 5,5 C 0,8 C 24,1 km/h (4 Bft)
16.02.2017 15:24 5,9 C 97 % 1024,0 hPa 0,0 l/m 13,4 km/h (3 Bft) SW 219 0 min 23 W/m 5,5 C 1,0 C 19,3 km/h (3 Bft)
16.02.2017 15:27 5,9 C 97 % 1024,0 hPa 0,0 l/m 12,5 km/h (2 Bft) SW 224 0 min 21 W/m 5,5 C 1,5 C 20,9 km/h (4 Bft)
16.02.2017 15:30 5,9 C 97 % 1024,0 hPa 0,0 l/m 13,9 km/h (3 Bft) S-SW 208 0 min 18 W/m 5,5 C 0,7 C 20,9 km/h (4 Bft)
16.02.2017 15:33 5,9 C 97 % 1024,0 hPa 0,0 l/m 13,8 km/h (3 Bft) S-SW 202 0 min 16 W/m 5,5 C 0,8 C 24,1 km/h (4 Bft)
16.02.2017 15:36 5,9 C 97 % 1023,9 hPa 0,0 l/m 14,8 km/h (3 Bft) W-SW 238 0 min 14 W/m 5,5 C 0,3 C 24,1 km/h (4 Bft)
16.02.2017 15:39 5,9 C 97 % 1024,0 hPa 0,0 l/m 15,4 km/h (3 Bft) SW 219 0 min 16 W/m 5,5 C -0,0 C 20,9 km/h (4 Bft)
16.02.2017 15:42 5,9 C 97 % 1023,9 hPa 0,0 l/m 16,6 km/h (3 Bft) SW 223 0 min 16 W/m 5,5 C -0,6 C 24,1 km/h (4 Bft)
16.02.2017 15:45 5,9 C 97 % 1023,9 hPa 0,0 l/m 14,5 km/h (3 Bft) SW 223 0 min 16 W/m 5,5 C 0,4 C 19,3 km/h (3 Bft)
16.02.2017 15:48 5,9 C 97 % 1023,9 hPa 0,0 l/m 12,2 km/h (2 Bft) SW 215 0 min 12 W/m 5,5 C 1,7 C 17,7 km/h (3 Bft)
16.02.2017 15:51 5,9 C 97 % 1023,9 hPa 0,0 l/m 17,0 km/h (3 Bft) SW 219 0 min 12 W/m 5,5 C -0,8 C 22,5 km/h (4 Bft)
16.02.2017 15:54 5,9 C 97 % 1023,9 hPa 0,0 l/m 15,0 km/h (3 Bft) SW 227 0 min 11 W/m 5,5 C 0,2 C 24,1 km/h (4 Bft)
16.02.2017 15:57 5,9 C 97 % 1023,8 hPa 0,0 l/m 15,0 km/h (3 Bft) SW 216 0 min 14 W/m 5,5 C 0,2 C 20,9 km/h (4 Bft)
16.02.2017 16:00 5,9 C 97 % 1023,8 hPa 0,0 l/m 15,5 km/h (3 Bft) SW 229 0 min 9 W/m 5,5 C -0,1 C 22,5 km/h (4 Bft)
16.02.2017 16:03 5,9 C 97 % 1023,8 hPa 0,0 l/m 16,6 km/h (3 Bft) SW 217 0 min 7 W/m 5,5 C -0,6 C 24,1 km/h (4 Bft)
16.02.2017 16:06 5,9 C 97 % 1023,8 hPa 0,0 l/m 15,1 km/h (3 Bft) SW 229 0 min 0 W/m 5,5 C 0,1 C 22,5 km/h (4 Bft)
16.02.2017 16:09 5,9 C 97 % 1023,7 hPa 0,0 l/m 14,5 km/h (3 Bft) SW 215 0 min 5 W/m 5,5 C 0,4 C 20,9 km/h (4 Bft)
16.02.2017 16:12 5,9 C 97 % 1023,7 hPa 0,0 l/m 13,1 km/h (3 Bft) SW 223 0 min 9 W/m 5,5 C 1,2 C 20,9 km/h (4 Bft)
16.02.2017 16:15 5,9 C 97 % 1023,6 hPa 0,0 l/m 13,8 km/h (3 Bft) SW 226 0 min 11 W/m 5,5 C 0,8 C 22,5 km/h (4 Bft)
16.02.2017 16:18 5,9 C 97 % 1023,7 hPa 0,0 l/m 13,9 km/h (3 Bft) S-SW 210 0 min 7 W/m 5,5 C 0,7 C 20,9 km/h (4 Bft)
16.02.2017 16:21 5,9 C 98 % 1023,7 hPa 0,0 l/m 14,3 km/h (3 Bft) SW 218 0 min 5 W/m 5,6 C 0,5 C 17,7 km/h (3 Bft)
16.02.2017 16:24 5,9 C 98 % 1023,7 hPa 0,0 l/m 13,4 km/h (3 Bft) S-SW 213 0 min 5 W/m 5,6 C 1,0 C 19,3 km/h (3 Bft)
16.02.2017 16:27 5,9 C 98 % 1023,6 hPa 0,0 l/m 13,6 km/h (3 Bft) SW 227 0 min 5 W/m 5,6 C 0,9 C 20,9 km/h (4 Bft)
16.02.2017 16:30 5,8 C 97 % 1023,7 hPa 0,0 l/m 14,4 km/h (3 Bft) SW 214 0 min 5 W/m 5,4 C 0,3 C 22,5 km/h (4 Bft)
16.02.2017 16:33 5,8 C 97 % 1023,7 hPa 0,0 l/m 13,6 km/h (3 Bft) SW 234 0 min 5 W/m 5,4 C 0,8 C 22,5 km/h (4 Bft)
16.02.2017 16:36 5,8 C 97 % 1023,7 hPa 0,0 l/m 15,2 km/h (3 Bft) W-SW 237 0 min 5 W/m 5,4 C -0,1 C 24,1 km/h (4 Bft)
16.02.2017 16:39 5,8 C 97 % 1023,6 hPa 0,0 l/m 16,2 km/h (3 Bft) S-SW 208 0 min 5 W/m 5,4 C -0,5 C 24,1 km/h (4 Bft)
16.02.2017 16:42 5,8 C 97 % 1023,7 hPa 0,0 l/m 14,3 km/h (3 Bft) W-SW 258 0 min 5 W/m 5,4 C 0,4 C 19,3 km/h (3 Bft)
16.02.2017 16:45 5,8 C 97 % 1023,7 hPa 0,0 l/m 13,4 km/h (3 Bft) SW 236 0 min 5 W/m 5,4 C 0,9 C 20,9 km/h (4 Bft)
16.02.2017 16:48 5,8 C 97 % 1023,7 hPa 0,0 l/m 13,8 km/h (3 Bft) SW 222 0 min 5 W/m 5,4 C 0,7 C 22,5 km/h (4 Bft)
16.02.2017 16:51 5,8 C 97 % 1023,6 hPa 0,0 l/m 12,6 km/h (3 Bft) S-SW 195 0 min 5 W/m 5,4 C 1,3 C 22,5 km/h (4 Bft)
16.02.2017 16:54 5,8 C 97 % 1023,6 hPa 0,0 l/m 16,3 km/h (3 Bft) S-SW 197 0 min 0 W/m 5,4 C -0,6 C 25,7 km/h (4 Bft)
16.02.2017 16:57 5,8 C 97 % 1023,6 hPa 0,0 l/m 14,6 km/h (3 Bft) S-SW 208 0 min 5 W/m 5,4 C 0,2 C 22,5 km/h (4 Bft)
16.02.2017 17:00 5,8 C 97 % 1023,5 hPa 0,0 l/m 11,8 km/h (2 Bft) S-SW 199 0 min 5 W/m 5,4 C 1,8 C 19,3 km/h (3 Bft)
16.02.2017 17:03 5,8 C 98 % 1023,5 hPa 0,0 l/m 12,0 km/h (2 Bft) S 188 0 min 0 W/m 5,5 C 1,7 C 17,7 km/h (3 Bft)
16.02.2017 17:06 5,7 C 98 % 1023,5 hPa 0,0 l/m 13,0 km/h (3 Bft) SW 215 0 min 5 W/m 5,4 C 1,0 C 20,9 km/h (4 Bft)
16.02.2017 17:09 5,7 C 98 % 1023,5 hPa 0,0 l/m 13,5 km/h (3 Bft) S-SW 195 0 min 5 W/m 5,4 C 0,7 C 19,3 km/h (3 Bft)
16.02.2017 17:12 5,7 C 98 % 1023,5 hPa 0,0 l/m 13,5 km/h (3 Bft) S-SW 198 0 min 5 W/m 5,4 C 0,7 C 20,9 km/h (4 Bft)
16.02.2017 17:15 5,7 C 98 % 1023,5 hPa 0,0 l/m 12,7 km/h (3 Bft) SW 218 0 min 5 W/m 5,4 C 1,2 C 19,3 km/h (3 Bft)
16.02.2017 17:18 5,7 C 98 % 1023,5 hPa 0,0 l/m 14,2 km/h (3 Bft) W-SW 246 0 min 5 W/m 5,4 C 0,3 C 20,9 km/h (4 Bft)
16.02.2017 17:21 5,7 C 98 % 1023,5 hPa 0,0 l/m 14,7 km/h (3 Bft) SW 217 0 min 5 W/m 5,4 C 0,1 C 24,1 km/h (4 Bft)
16.02.2017 17:24 5,8 C 98 % 1023,5 hPa 0,0 l/m 16,7 km/h (3 Bft) SW 233 0 min 0 W/m 5,5 C -0,8 C 25,7 km/h (4 Bft)
16.02.2017 17:27 5,8 C 98 % 1023,5 hPa 0,0 l/m 12,6 km/h (3 Bft) SW 227 0 min 0 W/m 5,5 C 1,3 C 24,1 km/h (4 Bft)
16.02.2017 17:30 5,7 C 98 % 1023,5 hPa 0,0 l/m 13,5 km/h (3 Bft) SW 232 0 min 0 W/m 5,4 C 0,7 C 19,3 km/h (3 Bft)
16.02.2017 17:33 5,7 C 98 % 1023,4 hPa 0,0 l/m 13,3 km/h (3 Bft) SW 224 0 min 0 W/m 5,4 C 0,8 C 24,1 km/h (4 Bft)
16.02.2017 17:36 5,7 C 98 % 1023,4 hPa 0,0 l/m 12,2 km/h (2 Bft) SW 229 0 min 0 W/m 5,4 C 1,4 C 19,3 km/h (3 Bft)
16.02.2017 17:39 5,7 C 98 % 1023,4 hPa 0,0 l/m 11,5 km/h (2 Bft) SW 216 0 min 0 W/m 5,4 C 1,9 C 20,9 km/h (4 Bft)
16.02.2017 17:42 5,7 C 98 % 1023,3 hPa 0,0 l/m 13,3 km/h (3 Bft) S-SW 194 0 min 0 W/m 5,4 C 0,8 C 17,7 km/h (3 Bft)
16.02.2017 17:45 5,7 C 98 % 1023,3 hPa 0,0 l/m 14,3 km/h (3 Bft) S-SW 205 0 min 0 W/m 5,4 C 0,3 C 22,5 km/h (4 Bft)
16.02.2017 17:48 5,7 C 98 % 1023,4 hPa 0,0 l/m 14,9 km/h (3 Bft) SW 236 0 min 0 W/m 5,4 C -0,0 C 25,7 km/h (4 Bft)
16.02.2017 17:51 5,6 C 98 % 1023,3 hPa 0,0 l/m 13,1 km/h (3 Bft) SW 224 0 min 0 W/m 5,3 C 0,8 C 20,9 km/h (4 Bft)
16.02.2017 17:54 5,6 C 98 % 1023,4 hPa 0,0 l/m 14,6 km/h (3 Bft) SW 229 0 min 0 W/m 5,3 C 0,0 C 20,9 km/h (4 Bft)
16.02.2017 17:57 5,7 C 98 % 1023,3 hPa 0,0 l/m 14,2 km/h (3 Bft) S-SW 211 0 min 0 W/m 5,4 C 0,3 C 22,5 km/h (4 Bft)
16.02.2017 18:00 5,6 C 98 % 1023,3 hPa 0,0 l/m 13,1 km/h (3 Bft) S 184 0 min 0 W/m 5,3 C 0,8 C 19,3 km/h (3 Bft)
16.02.2017 18:03 5,6 C 98 % 1023,2 hPa 0,0 l/m 13,0 km/h (3 Bft) SW 223 0 min 0 W/m 5,3 C 0,9 C 20,9 km/h (4 Bft)
16.02.2017 18:06 5,6 C 98 % 1023,2 hPa 0,0 l/m 12,3 km/h (2 Bft) SW 217 0 min 0 W/m 5,3 C 1,3 C 19,3 km/h (3 Bft)
16.02.2017 18:09 5,6 C 98 % 1023,3 hPa 0,0 l/m 12,5 km/h (2 Bft) SW 217 0 min 0 W/m 5,3 C 1,2 C 19,3 km/h (3 Bft)
16.02.2017 18:12 5,6 C 98 % 1023,2 hPa 0,0 l/m 12,4 km/h (2 Bft) SW 227 0 min 0 W/m 5,3 C 1,2 C 19,3 km/h (3 Bft)
16.02.2017 18:15 5,6 C 98 % 1023,2 hPa 0,0 l/m 14,1 km/h (3 Bft) SW 235 0 min 0 W/m 5,3 C 0,3 C 20,9 km/h (4 Bft)
16.02.2017 18:18 5,6 C 98 % 1023,2 hPa 0,0 l/m 13,9 km/h (3 Bft) SW 215 0 min 0 W/m 5,3 C 0,4 C 22,5 km/h (4 Bft)
16.02.2017 18:21 5,6 C 98 % 1023,2 hPa 0,0 l/m 16,5 km/h (3 Bft) SW 223 0 min 0 W/m 5,3 C -0,9 C 22,5 km/h (4 Bft)
16.02.2017 18:24 5,6 C 98 % 1023,2 hPa 0,0 l/m 12,2 km/h (2 Bft) W-SW 254 0 min 0 W/m 5,3 C 1,3 C 17,7 km/h (3 Bft)
16.02.2017 18:27 5,6 C 98 % 1023,2 hPa 0,0 l/m 16,0 km/h (3 Bft) W-SW 248 0 min 0 W/m 5,3 C -0,7 C 22,5 km/h (4 Bft)
16.02.2017 18:30 5,6 C 98 % 1023,2 hPa 0,0 l/m 14,9 km/h (3 Bft) SW 214 0 min 0 W/m 5,3 C -0,1 C 24,1 km/h (4 Bft)
16.02.2017 18:33 5,6 C 98 % 1023,2 hPa 0,0 l/m 11,8 km/h (2 Bft) S-SW 212 0 min 0 W/m 5,3 C 1,6 C 17,7 km/h (3 Bft)
16.02.2017 18:36 5,6 C 98 % 1023,2 hPa 0,0 l/m 12,1 km/h (2 Bft) SW 235 0 min 0 W/m 5,3 C 1,4 C 17,7 km/h (3 Bft)
16.02.2017 18:39 5,6 C 98 % 1023,2 hPa 0,0 l/m 13,6 km/h (3 Bft) W-SW 238 0 min 0 W/m 5,3 C 0,5 C 19,3 km/h (3 Bft)
16.02.2017 18:42 5,6 C 98 % 1023,1 hPa 0,0 l/m 13,1 km/h (3 Bft) SW 223 0 min 0 W/m 5,3 C 0,8 C 19,3 km/h (3 Bft)
16.02.2017 18:45 5,6 C 98 % 1023,1 hPa 0,0 l/m 12,0 km/h (2 Bft) SW 235 0 min 0 W/m 5,3 C 1,4 C 19,3 km/h (3 Bft)
16.02.2017 18:48 5,6 C 98 % 1023,1 hPa 0,0 l/m 11,6 km/h (2 Bft) S-SW 195 0 min 0 W/m 5,3 C 1,7 C 16,1 km/h (3 Bft)
16.02.2017 18:51 5,6 C 98 % 1023,1 hPa 0,0 l/m 11,7 km/h (2 Bft) SW 221 0 min 0 W/m 5,3 C 1,6 C 17,7 km/h (3 Bft)
16.02.2017 18:54 5,6 C 98 % 1023,1 hPa 0,0 l/m 13,3 km/h (3 Bft) W-SW 237 0 min 0 W/m 5,3 C 0,7 C 16,1 km/h (3 Bft)
16.02.2017 18:57 5,6 C 98 % 1023,0 hPa 0,0 l/m 12,1 km/h (2 Bft) W-SW 240 0 min 0 W/m 5,3 C 1,4 C 17,7 km/h (3 Bft)
16.02.2017 19:00 5,6 C 98 % 1023,0 hPa 0,0 l/m 13,2 km/h (3 Bft) SW 214 0 min 0 W/m 5,3 C 0,8 C 20,9 km/h (4 Bft)
16.02.2017 19:03 5,6 C 98 % 1023,0 hPa 0,0 l/m 13,4 km/h (3 Bft) SW 236 0 min 0 W/m 5,3 C 0,6 C 19,3 km/h (3 Bft)
16.02.2017 19:06 5,7 C 98 % 1023,0 hPa 0,0 l/m 13,1 km/h (3 Bft) W-SW 241 0 min 0 W/m 5,4 C 0,9 C 19,3 km/h (3 Bft)
16.02.2017 19:09 5,7 C 98 % 1022,9 hPa 0,0 l/m 14,2 km/h (3 Bft) W-SW 243 0 min 0 W/m 5,4 C 0,3 C 25,7 km/h (4 Bft)
16.02.2017 19:12 5,8 C 98 % 1023,0 hPa 0,0 l/m 17,0 km/h (3 Bft) S-SW 209 0 min 0 W/m 5,5 C -0,9 C 24,1 km/h (4 Bft)
16.02.2017 19:15 5,8 C 98 % 1023,0 hPa 0,0 l/m 16,3 km/h (3 Bft) SW 229 0 min 0 W/m 5,5 C -0,6 C 22,5 km/h (4 Bft)
16.02.2017 19:18 5,8 C 98 % 1022,9 hPa 0,0 l/m 16,7 km/h (3 Bft) SW 225 0 min 0 W/m 5,5 C -0,8 C 24,1 km/h (4 Bft)
16.02.2017 19:21 5,8 C 98 % 1022,9 hPa 0,0 l/m 15,7 km/h (3 Bft) SW 217 0 min 0 W/m 5,5 C -0,3 C 22,5 km/h (4 Bft)
16.02.2017 19:24 5,8 C 98 % 1022,8 hPa 0,0 l/m 17,8 km/h (3 Bft) SW 234 0 min 0 W/m 5,5 C -1,2 C 27,4 km/h (5 Bft)
16.02.2017 19:27 5,8 C 98 % 1022,8 hPa 0,0 l/m 16,2 km/h (3 Bft) W 269 0 min 0 W/m 5,5 C -0,5 C 25,7 km/h (4 Bft)
16.02.2017 19:30 5,8 C 98 % 1022,8 hPa 0,0 l/m 14,7 km/h (3 Bft) SW 227 0 min 0 W/m 5,5 C 0,2 C 22,5 km/h (4 Bft)
16.02.2017 19:33 5,8 C 98 % 1022,7 hPa 0,0 l/m 16,7 km/h (3 Bft) SW 234 0 min 0 W/m 5,5 C -0,8 C 24,1 km/h (4 Bft)
16.02.2017 19:36 5,8 C 98 % 1022,7 hPa 0,0 l/m 16,8 km/h (3 Bft) S-SW 208 0 min 0 W/m 5,5 C -0,8 C 25,7 km/h (4 Bft)
16.02.2017 19:39 5,8 C 98 % 1022,7 hPa 0,0 l/m 16,8 km/h (3 Bft) S-SW 197 0 min 0 W/m 5,5 C -0,8 C 24,1 km/h (4 Bft)
16.02.2017 19:42 5,8 C 98 % 1022,7 hPa 0,0 l/m 15,6 km/h (3 Bft) S-SW 200 0 min 0 W/m 5,5 C -0,2 C 22,5 km/h (4 Bft)
16.02.2017 19:45 5,8 C 98 % 1022,7 hPa 0,0 l/m 14,7 km/h (3 Bft) SW 225 0 min 0 W/m 5,5 C 0,2 C 20,9 km/h (4 Bft)
16.02.2017 19:48 5,7 C 98 % 1022,6 hPa 0,0 l/m 17,5 km/h (3 Bft) SW 232 0 min 0 W/m 5,4 C -1,2 C 25,7 km/h (4 Bft)
16.02.2017 19:51 5,7 C 98 % 1022,6 hPa 0,0 l/m 17,4 km/h (3 Bft) W-SW 248 0 min 0 W/m 5,4 C -1,2 C 27,4 km/h (5 Bft)
16.02.2017 19:54 5,7 C 98 % 1022,6 hPa 0,0 l/m 16,6 km/h (3 Bft) S-SW 207 0 min 0 W/m 5,4 C -0,8 C 22,5 km/h (4 Bft)
16.02.2017 19:57 5,7 C 98 % 1022,5 hPa 0,0 l/m 15,2 km/h (3 Bft) SW 234 0 min 0 W/m 5,4 C -0,2 C 24,1 km/h (4 Bft)
16.02.2017 20:00 5,7 C 98 % 1022,6 hPa 0,0 l/m 18,4 km/h (3 Bft) SW 215 0 min 0 W/m 5,4 C -1,6 C 25,7 km/h (4 Bft)
16.02.2017 20:03 5,6 C 98 % 1022,5 hPa 0,0 l/m 17,7 km/h (3 Bft) S-SW 196 0 min 0 W/m 5,3 C -1,5 C 27,4 km/h (5 Bft)
16.02.2017 20:06 5,6 C 98 % 1022,6 hPa 0,0 l/m 15,4 km/h (3 Bft) SW 224 0 min 0 W/m 5,3 C -0,4 C 24,1 km/h (4 Bft)
16.02.2017 20:09 5,6 C 98 % 1022,6 hPa 0,0 l/m 16,4 km/h (3 Bft) SW 225 0 min 0 W/m 5,3 C -0,9 C 27,4 km/h (5 Bft)
16.02.2017 20:12 5,6 C 98 % 1022,5 hPa 0,0 l/m 16,8 km/h (3 Bft) SW 223 0 min 0 W/m 5,3 C -1,1 C 25,7 km/h (4 Bft)
16.02.2017 20:15 5,6 C 98 % 1022,6 hPa 0,0 l/m 14,9 km/h (3 Bft) SW 221 0 min 0 W/m 5,3 C -0,1 C 25,7 km/h (4 Bft)
16.02.2017 20:18 5,6 C 98 % 1022,6 hPa 0,0 l/m 16,9 km/h (3 Bft) S-SW 208 0 min 0 W/m 5,3 C -1,1 C 24,1 km/h (4 Bft)
16.02.2017 20:21 5,5 C 98 % 1022,6 hPa 0,0 l/m 16,2 km/h (3 Bft) W-SW 239 0 min 0 W/m 5,2 C -0,9 C 22,5 km/h (4 Bft)
16.02.2017 20:24 5,6 C 98 % 1022,5 hPa 0,0 l/m 14,9 km/h (3 Bft) S-SW 212 0 min 0 W/m 5,3 C -0,1 C 25,7 km/h (4 Bft)
16.02.2017 20:27 5,6 C 98 % 1022,6 hPa 0,0 l/m 15,7 km/h (3 Bft) SW 232 0 min 0 W/m 5,3 C -0,5 C 25,7 km/h (4 Bft)
16.02.2017 20:30 5,6 C 98 % 1022,6 hPa 0,0 l/m 16,6 km/h (3 Bft) SW 217 0 min 0 W/m 5,3 C -1,0 C 25,7 km/h (4 Bft)
16.02.2017 20:33 5,7 C 98 % 1022,5 hPa 0,0 l/m 16,9 km/h (3 Bft) S-SW 213 0 min 0 W/m 5,4 C -1,0 C 25,7 km/h (4 Bft)
16.02.2017 20:36 5,7 C 98 % 1022,5 hPa 0,0 l/m 18,8 km/h (3 Bft) SW 225 0 min 0 W/m 5,4 C -1,8 C 25,7 km/h (4 Bft)
16.02.2017 20:39 5,7 C 98 % 1022,5 hPa 0,0 l/m 18,0 km/h (3 Bft) SW 221 0 min 0 W/m 5,4 C -1,5 C 30,6 km/h (5 Bft)
16.02.2017 20:42 5,7 C 98 % 1022,5 hPa 0,0 l/m 15,7 km/h (3 Bft) S 190 0 min 0 W/m 5,4 C -0,4 C 22,5 km/h (4 Bft)
16.02.2017 20:45 5,7 C 98 % 1022,4 hPa 0,0 l/m 17,8 km/h (3 Bft) W-SW 246 0 min 0 W/m 5,4 C -1,4 C 25,7 km/h (4 Bft)
16.02.2017 20:48 5,6 C 98 % 1022,4 hPa 0,0 l/m 16,6 km/h (3 Bft) SW 233 0 min 0 W/m 5,3 C -1,0 C 24,1 km/h (4 Bft)
16.02.2017 20:51 5,6 C 98 % 1022,4 hPa 0,0 l/m 16,6 km/h (3 Bft) SW 225 0 min 0 W/m 5,3 C -1,0 C 22,5 km/h (4 Bft)
16.02.2017 20:54 5,6 C 98 % 1022,5 hPa 0,0 l/m 17,4 km/h (3 Bft) SW 229 0 min 0 W/m 5,3 C -1,3 C 25,7 km/h (4 Bft)
16.02.2017 20:57 5,5 C 98 % 1022,4 hPa 0,0 l/m 15,0 km/h (3 Bft) SW 215 0 min 0 W/m 5,2 C -0,3 C 25,7 km/h (4 Bft)
16.02.2017 21:00 5,5 C 98 % 1022,4 hPa 0,0 l/m 17,4 km/h (3 Bft) SW 228 0 min 0 W/m 5,2 C -1,4 C 24,1 km/h (4 Bft)
16.02.2017 21:03 5,4 C 98 % 1022,4 hPa 0,0 l/m 16,1 km/h (3 Bft) SW 215 0 min 0 W/m 5,1 C -1,0 C 22,5 km/h (4 Bft)
16.02.2017 21:06 5,4 C 98 % 1022,4 hPa 0,0 l/m 15,9 km/h (3 Bft) S-SW 204 0 min 0 W/m 5,1 C -0,9 C 24,1 km/h (4 Bft)
16.02.2017 21:09 5,4 C 98 % 1022,4 hPa 0,0 l/m 13,4 km/h (3 Bft) SW 215 0 min 0 W/m 5,1 C 0,4 C 20,9 km/h (4 Bft)
16.02.2017 21:12 5,3 C 98 % 1022,3 hPa 0,0 l/m 15,6 km/h (3 Bft) SW 214 0 min 0 W/m 5,0 C -0,9 C 22,5 km/h (4 Bft)
16.02.2017 21:15 5,3 C 97 % 1022,3 hPa 0,0 l/m 14,2 km/h (3 Bft) S-SW 213 0 min 0 W/m 4,9 C -0,1 C 20,9 km/h (4 Bft)
16.02.2017 21:18 5,3 C 97 % 1022,3 hPa 0,0 l/m 16,7 km/h (3 Bft) SW 216 0 min 0 W/m 4,9 C -1,4 C 25,7 km/h (4 Bft)
16.02.2017 21:21 5,3 C 97 % 1022,2 hPa 0,0 l/m 16,4 km/h (3 Bft) S-SW 202 0 min 0 W/m 4,9 C -1,2 C 24,1 km/h (4 Bft)
16.02.2017 21:24 5,3 C 97 % 1022,2 hPa 0,0 l/m 14,8 km/h (3 Bft) SW 236 0 min 0 W/m 4,9 C -0,5 C 22,5 km/h (4 Bft)
16.02.2017 21:27 5,3 C 97 % 1022,2 hPa 0,0 l/m 15,8 km/h (3 Bft) SW 215 0 min 0 W/m 4,9 C -1,0 C 22,5 km/h (4 Bft)
16.02.2017 21:30 5,2 C 97 % 1022,1 hPa 0,0 l/m 16,5 km/h (3 Bft) SW 224 0 min 0 W/m 4,8 C -1,4 C 24,1 km/h (4 Bft)
16.02.2017 21:33 5,2 C 97 % 1022,1 hPa 0,0 l/m 14,7 km/h (3 Bft) S-SW 200 0 min 0 W/m 4,8 C -0,5 C 24,1 km/h (4 Bft)
16.02.2017 21:36 5,2 C 97 % 1022,1 hPa 0,0 l/m 13,8 km/h (3 Bft) SW 227 0 min 0 W/m 4,8 C -0,0 C 20,9 km/h (4 Bft)
16.02.2017 21:39 5,2 C 97 % 1022,1 hPa 0,0 l/m 15,6 km/h (3 Bft) SW 226 0 min 0 W/m 4,8 C -1,0 C 24,1 km/h (4 Bft)
16.02.2017 21:42 5,2 C 97 % 1022,1 hPa 0,0 l/m 15,4 km/h (3 Bft) SW 228 0 min 0 W/m 4,8 C -0,9 C 25,7 km/h (4 Bft)
16.02.2017 21:45 5,1 C 97 % 1022,0 hPa 0,0 l/m 16,8 km/h (3 Bft) SW 217 0 min 0 W/m 4,7 C -1,7 C 25,7 km/h (4 Bft)
16.02.2017 21:48 5,1 C 97 % 1022,0 hPa 0,0 l/m 14,4 km/h (3 Bft) SW 226 0 min 0 W/m 4,7 C -0,5 C 22,5 km/h (4 Bft)
16.02.2017 21:51 5,1 C 97 % 1022,0 hPa 0,0 l/m 15,4 km/h (3 Bft) SW 231 0 min 0 W/m 4,7 C -1,0 C 20,9 km/h (4 Bft)
16.02.2017 21:54 5,0 C 97 % 1022,0 hPa 0,0 l/m 15,6 km/h (3 Bft) SW 227 0 min 0 W/m 4,6 C -1,2 C 25,7 km/h (4 Bft)
16.02.2017 21:57 5,0 C 97 % 1022,0 hPa 0,0 l/m 15,9 km/h (3 Bft) SW 227 0 min 0 W/m 4,6 C -1,4 C 22,5 km/h (4 Bft)
16.02.2017 22:00 5,1 C 97 % 1021,9 hPa 0,0 l/m 17,1 km/h (3 Bft) S-SW 196 0 min 0 W/m 4,7 C -1,8 C 27,4 km/h (5 Bft)
16.02.2017 22:03 5,2 C 97 % 1021,9 hPa 0,0 l/m 16,0 km/h (3 Bft) SW 234 0 min 0 W/m 4,8 C -1,2 C 25,7 km/h (4 Bft)
16.02.2017 22:06 5,2 C 97 % 1021,9 hPa 0,0 l/m 16,1 km/h (3 Bft) SW 234 0 min 0 W/m 4,8 C -1,2 C 24,1 km/h (4 Bft)
16.02.2017 22:09 5,2 C 97 % 1021,8 hPa 0,0 l/m 16,8 km/h (3 Bft) S-SW 213 0 min 0 W/m 4,8 C -1,6 C 27,4 km/h (5 Bft)
16.02.2017 22:12 5,1 C 97 % 1021,8 hPa 0,0 l/m 15,9 km/h (3 Bft) S-SW 207 0 min 0 W/m 4,7 C -1,3 C 24,1 km/h (4 Bft)
16.02.2017 22:15 5,1 C 97 % 1021,7 hPa 0,0 l/m 14,0 km/h (3 Bft) SW 227 0 min 0 W/m 4,7 C -0,3 C 20,9 km/h (4 Bft)
16.02.2017 22:18 5,0 C 96 % 1021,7 hPa 0,0 l/m 15,7 km/h (3 Bft) W-SW 246 0 min 0 W/m 4,4 C -1,3 C 25,7 km/h (4 Bft)
16.02.2017 22:21 5,0 C 96 % 1021,6 hPa 0,0 l/m 17,1 km/h (3 Bft) W-SW 246 0 min 0 W/m 4,4 C -1,9 C 22,5 km/h (4 Bft)
16.02.2017 22:24 4,9 C 96 % 1021,6 hPa 0,0 l/m 14,7 km/h (3 Bft) S-SW 210 0 min 0 W/m 4,3 C -0,9 C 22,5 km/h (4 Bft)
16.02.2017 22:27 4,9 C 96 % 1021,6 hPa 0,0 l/m 15,2 km/h (3 Bft) SW 232 0 min 0 W/m 4,3 C -1,1 C 24,1 km/h (4 Bft)
16.02.2017 22:30 4,9 C 96 % 1021,5 hPa 0,0 l/m 15,4 km/h (3 Bft) S-SW 205 0 min 0 W/m 4,3 C -1,2 C 25,7 km/h (4 Bft)
16.02.2017 22:33 4,9 C 96 % 1021,5 hPa 0,0 l/m 14,5 km/h (3 Bft) SW 216 0 min 0 W/m 4,3 C -0,8 C 20,9 km/h (4 Bft)
16.02.2017 22:36 4,9 C 96 % 1021,5 hPa 0,0 l/m 13,3 km/h (3 Bft) S-SW 212 0 min 0 W/m 4,3 C -0,1 C 19,3 km/h (3 Bft)
16.02.2017 22:39 4,9 C 96 % 1021,5 hPa 0,0 l/m 16,9 km/h (3 Bft) S-SW 213 0 min 0 W/m 4,3 C -2,0 C 24,1 km/h (4 Bft)
16.02.2017 22:42 4,9 C 96 % 1021,4 hPa 0,0 l/m 14,8 km/h (3 Bft) W-SW 249 0 min 0 W/m 4,3 C -0,9 C 20,9 km/h (4 Bft)
16.02.2017 22:45 4,8 C 96 % 1021,5 hPa 0,0 l/m 14,8 km/h (3 Bft) SW 216 0 min 0 W/m 4,2 C -1,1 C 22,5 km/h (4 Bft)
16.02.2017 22:48 4,8 C 96 % 1021,4 hPa 0,0 l/m 16,7 km/h (3 Bft) SW 227 0 min 0 W/m 4,2 C -2,0 C 27,4 km/h (5 Bft)
16.02.2017 22:51 4,8 C 96 % 1021,3 hPa 0,0 l/m 18,3 km/h (3 Bft) SW 231 0 min 0 W/m 4,2 C -2,7 C 24,1 km/h (4 Bft)
16.02.2017 22:54 4,8 C 96 % 1021,3 hPa 0,0 l/m 16,8 km/h (3 Bft) SW 219 0 min 0 W/m 4,2 C -2,0 C 27,4 km/h (5 Bft)
16.02.2017 22:57 4,8 C 96 % 1021,2 hPa 0,0 l/m 17,2 km/h (3 Bft) S-SW 213 0 min 0 W/m 4,2 C -2,2 C 24,1 km/h (4 Bft)
16.02.2017 23:00 4,8 C 96 % 1021,3 hPa 0,0 l/m 15,7 km/h (3 Bft) SW 220 0 min 0 W/m 4,2 C -1,5 C 22,5 km/h (4 Bft)
16.02.2017 23:03 4,8 C 96 % 1021,2 hPa 0,0 l/m 15,4 km/h (3 Bft) SW 215 0 min 0 W/m 4,2 C -1,4 C 22,5 km/h (4 Bft)
16.02.2017 23:06 4,8 C 96 % 1021,2 hPa 0,0 l/m 16,3 km/h (3 Bft) SW 227 0 min 0 W/m 4,2 C -1,8 C 22,5 km/h (4 Bft)
16.02.2017 23:09 4,8 C 96 % 1021,2 hPa 0,0 l/m 18,8 km/h (3 Bft) SW 217 0 min 0 W/m 4,2 C -2,9 C 24,1 km/h (4 Bft)
16.02.2017 23:12 4,8 C 96 % 1021,1 hPa 0,0 l/m 17,7 km/h (3 Bft) SW 224 0 min 0 W/m 4,2 C -2,5 C 25,7 km/h (4 Bft)
16.02.2017 23:15 4,8 C 96 % 1021,0 hPa 0,0 l/m 17,9 km/h (3 Bft) SW 228 0 min 0 W/m 4,2 C -2,5 C 24,1 km/h (4 Bft)
16.02.2017 23:18 4,8 C 96 % 1021,0 hPa 0,0 l/m 18,9 km/h (3 Bft) S-SW 206 0 min 0 W/m 4,2 C -3,0 C 25,7 km/h (4 Bft)
16.02.2017 23:21 4,8 C 96 % 1021,0 hPa 0,0 l/m 17,0 km/h (3 Bft) SW 221 0 min 0 W/m 4,2 C -2,1 C 30,6 km/h (5 Bft)
16.02.2017 23:24 4,8 C 96 % 1021,0 hPa 0,0 l/m 19,5 km/h (3 Bft) S-SW 208 0 min 0 W/m 4,2 C -3,2 C 25,7 km/h (4 Bft)
16.02.2017 23:27 4,8 C 96 % 1020,9 hPa 0,0 l/m 17,9 km/h (3 Bft) SW 234 0 min 0 W/m 4,2 C -2,5 C 25,7 km/h (4 Bft)
16.02.2017 23:30 4,8 C 96 % 1020,9 hPa 0,0 l/m 18,2 km/h (3 Bft) S-SW 210 0 min 0 W/m 4,2 C -2,7 C 25,7 km/h (4 Bft)
16.02.2017 23:33 4,8 C 96 % 1020,9 hPa 0,0 l/m 17,6 km/h (3 Bft) SW 232 0 min 0 W/m 4,2 C -2,4 C 29,0 km/h (5 Bft)
16.02.2017 23:36 4,8 C 96 % 1020,9 hPa 0,0 l/m 18,3 km/h (3 Bft) S-SW 209 0 min 0 W/m 4,2 C -2,7 C 27,4 km/h (5 Bft)
16.02.2017 23:39 4,8 C 96 % 1020,9 hPa 0,0 l/m 19,9 km/h (4 Bft) SW 215 0 min 0 W/m 4,2 C -3,4 C 25,7 km/h (4 Bft)
16.02.2017 23:42 4,8 C 96 % 1020,9 hPa 0,0 l/m 17,5 km/h (3 Bft) S-SW 210 0 min 0 W/m 4,2 C -2,4 C 25,7 km/h (4 Bft)
16.02.2017 23:45 4,8 C 96 % 1020,9 hPa 0,0 l/m 17,4 km/h (3 Bft) SW 221 0 min 0 W/m 4,2 C -2,3 C 24,1 km/h (4 Bft)
16.02.2017 23:48 4,8 C 96 % 1020,8 hPa 0,0 l/m 18,4 km/h (3 Bft) SW 221 0 min 0 W/m 4,2 C -2,8 C 27,4 km/h (5 Bft)
16.02.2017 23:51 4,8 C 96 % 1020,8 hPa 0,0 l/m 17,7 km/h (3 Bft) W-SW 240 0 min 0 W/m 4,2 C -2,5 C 25,7 km/h (4 Bft)
16.02.2017 23:54 4,8 C 96 % 1020,8 hPa 0,0 l/m 19,5 km/h (3 Bft) SW 232 0 min 0 W/m 4,2 C -3,2 C 27,4 km/h (5 Bft)
16.02.2017 23:57 4,8 C 95 % 1020,8 hPa 0,0 l/m 16,9 km/h (3 Bft) SW 221 0 min 0 W/m 4,1 C -2,1 C 29,0 km/h (5 Bft)
_ Min-Zeit 00:00 01:51 23:48 - 00:21 - - - - 00:00 09:21 00:06
Minimum _ 2,6 C 74 % 1020,8 hPa - 1,6 km/h (1 Bft) - - - - 0,7 C -4,4 C 3,2 km/h (1 Bft)
_ Max-Zeit 03:36 16:21 00:00 00:00 09:21 - - 00:00 09:27 14:45 01:51 09:03
Maximum _ 7,4 C 98 % 1028,2 hPa 0,0 l/m 25,1 km/h
S-SW (4 Bft)
- - 0 min 95 W/m 5,7 C 6,6 C 40,2 km/h
SW (6 Bft)
Durchschnitt _ 5,6 C 93 % 1024,9 hPa #0,0 l/m 14,2 km/h (3 Bft) SW - #0 min. 42 W/m 4,5 C 0,4 C 21,8 km/h (4 Bft)
2017 Cux-Wetter.de -Die Nutzung der Wetterdaten nur mit ausdrcklicher Genehmigung